<?xml version="1.0" encoding="UTF-8" standalone="no" ?>
<gpx xmlns="http://www.topografix.com/GPX/1/1" xmlns:xsi="http://www.w3.org/2001/XMLSchema-instance" xsi:schemaLocation="http://www.topografix.com/GPX/1/1 http://www.topografix.com/GPX/1/1/gpx.xsd" version="1.1" creator="VisuGPX - https://www.visugpx.com">
  <metadata>
    <name>Bocca d'Amarese, Capu di Martignone</name>
    <desc><![CDATA[Voir : [url]https://les-randos-du-grand.eklablog.com/2026/05/escapade-en-corse-2-le-col-et-la-crete-d-amarese.html[/url]]]></desc>
  </metadata>
  <trk>
    <name><![CDATA[Bocca d'Amarese]]></name>
    <trkseg>
      <trkpt lat="42.21458" lon="8.82134">
        <ele>961.94</ele>
        <time>2026-05-03T12:40:19Z</time>
      </trkpt>
      <trkpt lat="42.21458" lon="8.82132">
        <ele>961.46</ele>
        <time>2026-05-03T12:40:47Z</time>
      </trkpt>
      <trkpt lat="42.21457" lon="8.82134">
        <ele>960.49</ele>
        <time>2026-05-03T12:41:05Z</time>
      </trkpt>
      <trkpt lat="42.21461" lon="8.82136">
        <ele>960.01</ele>
        <time>2026-05-03T12:41:11Z</time>
      </trkpt>
      <trkpt lat="42.21461" lon="8.82136">
        <ele>955.21</ele>
        <time>2026-05-03T12:41:21Z</time>
      </trkpt>
      <trkpt lat="42.2146" lon="8.82135">
        <ele>951.84</ele>
        <time>2026-05-03T12:41:35Z</time>
      </trkpt>
      <trkpt lat="42.21465" lon="8.8214">
        <ele>954.25</ele>
        <time>2026-05-03T12:41:43Z</time>
      </trkpt>
      <trkpt lat="42.21466" lon="8.82141">
        <ele>954.73</ele>
        <time>2026-05-03T12:41:44Z</time>
      </trkpt>
      <trkpt lat="42.21472" lon="8.82151">
        <ele>958.09</ele>
        <time>2026-05-03T12:41:54Z</time>
      </trkpt>
      <trkpt lat="42.21476" lon="8.82158">
        <ele>961.46</ele>
        <time>2026-05-03T12:42:04Z</time>
      </trkpt>
      <trkpt lat="42.21476" lon="8.8216">
        <ele>961.46</ele>
        <time>2026-05-03T12:42:05Z</time>
      </trkpt>
      <trkpt lat="42.21479" lon="8.8217">
        <ele>962.9</ele>
        <time>2026-05-03T12:42:16Z</time>
      </trkpt>
      <trkpt lat="42.21483" lon="8.82181">
        <ele>964.82</ele>
        <time>2026-05-03T12:42:27Z</time>
      </trkpt>
      <trkpt lat="42.21485" lon="8.82189">
        <ele>966.74</ele>
        <time>2026-05-03T12:42:38Z</time>
      </trkpt>
      <trkpt lat="42.2149" lon="8.82195">
        <ele>965.78</ele>
        <time>2026-05-03T12:42:49Z</time>
      </trkpt>
      <trkpt lat="42.21495" lon="8.822">
        <ele>964.82</ele>
        <time>2026-05-03T12:42:59Z</time>
      </trkpt>
      <trkpt lat="42.21501" lon="8.82205">
        <ele>964.82</ele>
        <time>2026-05-03T12:43:09Z</time>
      </trkpt>
      <trkpt lat="42.21507" lon="8.8221">
        <ele>965.3</ele>
        <time>2026-05-03T12:43:20Z</time>
      </trkpt>
      <trkpt lat="42.2151" lon="8.82213">
        <ele>964.34</ele>
        <time>2026-05-03T12:43:35Z</time>
      </trkpt>
      <trkpt lat="42.21518" lon="8.82214">
        <ele>965.3</ele>
        <time>2026-05-03T12:43:46Z</time>
      </trkpt>
      <trkpt lat="42.21526" lon="8.82214">
        <ele>966.74</ele>
        <time>2026-05-03T12:43:58Z</time>
      </trkpt>
      <trkpt lat="42.21533" lon="8.82212">
        <ele>967.7</ele>
        <time>2026-05-03T12:44:10Z</time>
      </trkpt>
      <trkpt lat="42.21535" lon="8.82211">
        <ele>968.18</ele>
        <time>2026-05-03T12:44:13Z</time>
      </trkpt>
      <trkpt lat="42.21542" lon="8.82207">
        <ele>967.7</ele>
        <time>2026-05-03T12:44:23Z</time>
      </trkpt>
      <trkpt lat="42.21549" lon="8.82207">
        <ele>968.67</ele>
        <time>2026-05-03T12:44:34Z</time>
      </trkpt>
      <trkpt lat="42.21556" lon="8.82205">
        <ele>969.15</ele>
        <time>2026-05-03T12:44:44Z</time>
      </trkpt>
      <trkpt lat="42.21562" lon="8.82203">
        <ele>971.07</ele>
        <time>2026-05-03T12:44:55Z</time>
      </trkpt>
      <trkpt lat="42.21567" lon="8.82202">
        <ele>973.95</ele>
        <time>2026-05-03T12:45:05Z</time>
      </trkpt>
      <trkpt lat="42.21574" lon="8.82202">
        <ele>974.91</ele>
        <time>2026-05-03T12:45:17Z</time>
      </trkpt>
      <trkpt lat="42.21579" lon="8.822">
        <ele>976.36</ele>
        <time>2026-05-03T12:45:27Z</time>
      </trkpt>
      <trkpt lat="42.21584" lon="8.8219">
        <ele>977.32</ele>
        <time>2026-05-03T12:45:38Z</time>
      </trkpt>
      <trkpt lat="42.21581" lon="8.82183">
        <ele>976.84</ele>
        <time>2026-05-03T12:46:01Z</time>
      </trkpt>
      <trkpt lat="42.21578" lon="8.82173">
        <ele>978.28</ele>
        <time>2026-05-03T12:46:23Z</time>
      </trkpt>
      <trkpt lat="42.21578" lon="8.82171">
        <ele>979.72</ele>
        <time>2026-05-03T12:46:38Z</time>
      </trkpt>
      <trkpt lat="42.21567" lon="8.8217">
        <ele>980.68</ele>
        <time>2026-05-03T12:46:52Z</time>
      </trkpt>
      <trkpt lat="42.21555" lon="8.82168">
        <ele>980.2</ele>
        <time>2026-05-03T12:47:04Z</time>
      </trkpt>
      <trkpt lat="42.21545" lon="8.82169">
        <ele>981.16</ele>
        <time>2026-05-03T12:47:18Z</time>
      </trkpt>
      <trkpt lat="42.21537" lon="8.82164">
        <ele>980.2</ele>
        <time>2026-05-03T12:47:29Z</time>
      </trkpt>
      <trkpt lat="42.21533" lon="8.82163">
        <ele>979.24</ele>
        <time>2026-05-03T12:47:42Z</time>
      </trkpt>
      <trkpt lat="42.2153" lon="8.82156">
        <ele>978.28</ele>
        <time>2026-05-03T12:48:02Z</time>
      </trkpt>
      <trkpt lat="42.21529" lon="8.82154">
        <ele>978.28</ele>
        <time>2026-05-03T12:48:05Z</time>
      </trkpt>
      <trkpt lat="42.21526" lon="8.82144">
        <ele>978.28</ele>
        <time>2026-05-03T12:48:16Z</time>
      </trkpt>
      <trkpt lat="42.21524" lon="8.82137">
        <ele>977.8</ele>
        <time>2026-05-03T12:48:27Z</time>
      </trkpt>
      <trkpt lat="42.21523" lon="8.82126">
        <ele>978.28</ele>
        <time>2026-05-03T12:48:42Z</time>
      </trkpt>
      <trkpt lat="42.2152" lon="8.82115">
        <ele>977.32</ele>
        <time>2026-05-03T12:48:53Z</time>
      </trkpt>
      <trkpt lat="42.21515" lon="8.82104">
        <ele>979.72</ele>
        <time>2026-05-03T12:49:05Z</time>
      </trkpt>
      <trkpt lat="42.21513" lon="8.82089">
        <ele>980.2</ele>
        <time>2026-05-03T12:49:18Z</time>
      </trkpt>
      <trkpt lat="42.2151" lon="8.82075">
        <ele>980.68</ele>
        <time>2026-05-03T12:49:31Z</time>
      </trkpt>
      <trkpt lat="42.21507" lon="8.82064">
        <ele>980.2</ele>
        <time>2026-05-03T12:49:42Z</time>
      </trkpt>
      <trkpt lat="42.21506" lon="8.82062">
        <ele>980.2</ele>
        <time>2026-05-03T12:49:44Z</time>
      </trkpt>
      <trkpt lat="42.21502" lon="8.82052">
        <ele>979.24</ele>
        <time>2026-05-03T12:49:55Z</time>
      </trkpt>
      <trkpt lat="42.21498" lon="8.82044">
        <ele>976.36</ele>
        <time>2026-05-03T12:50:07Z</time>
      </trkpt>
      <trkpt lat="42.21494" lon="8.8204">
        <ele>975.39</ele>
        <time>2026-05-03T12:50:21Z</time>
      </trkpt>
      <trkpt lat="42.21488" lon="8.82035">
        <ele>977.32</ele>
        <time>2026-05-03T12:50:38Z</time>
      </trkpt>
      <trkpt lat="42.21482" lon="8.82026">
        <ele>978.28</ele>
        <time>2026-05-03T12:50:50Z</time>
      </trkpt>
      <trkpt lat="42.21476" lon="8.82018">
        <ele>977.8</ele>
        <time>2026-05-03T12:51:04Z</time>
      </trkpt>
      <trkpt lat="42.2147" lon="8.8201">
        <ele>977.8</ele>
        <time>2026-05-03T12:51:15Z</time>
      </trkpt>
      <trkpt lat="42.21463" lon="8.82">
        <ele>978.28</ele>
        <time>2026-05-03T12:51:27Z</time>
      </trkpt>
      <trkpt lat="42.21459" lon="8.81995">
        <ele>980.68</ele>
        <time>2026-05-03T12:51:35Z</time>
      </trkpt>
      <trkpt lat="42.21455" lon="8.81986">
        <ele>980.68</ele>
        <time>2026-05-03T12:51:46Z</time>
      </trkpt>
      <trkpt lat="42.21454" lon="8.81975">
        <ele>980.68</ele>
        <time>2026-05-03T12:51:57Z</time>
      </trkpt>
      <trkpt lat="42.21457" lon="8.81968">
        <ele>981.16</ele>
        <time>2026-05-03T12:52:06Z</time>
      </trkpt>
      <trkpt lat="42.21462" lon="8.81961">
        <ele>982.6</ele>
        <time>2026-05-03T12:52:15Z</time>
      </trkpt>
      <trkpt lat="42.21464" lon="8.81952">
        <ele>984.05</ele>
        <time>2026-05-03T12:52:26Z</time>
      </trkpt>
      <trkpt lat="42.21469" lon="8.81942">
        <ele>985.01</ele>
        <time>2026-05-03T12:52:38Z</time>
      </trkpt>
      <trkpt lat="42.21473" lon="8.81934">
        <ele>985.97</ele>
        <time>2026-05-03T12:52:48Z</time>
      </trkpt>
      <trkpt lat="42.21478" lon="8.81926">
        <ele>986.93</ele>
        <time>2026-05-03T12:52:58Z</time>
      </trkpt>
      <trkpt lat="42.21484" lon="8.81919">
        <ele>988.37</ele>
        <time>2026-05-03T12:53:09Z</time>
      </trkpt>
      <trkpt lat="42.2149" lon="8.8191">
        <ele>990.78</ele>
        <time>2026-05-03T12:53:22Z</time>
      </trkpt>
      <trkpt lat="42.21497" lon="8.81901">
        <ele>990.3</ele>
        <time>2026-05-03T12:53:34Z</time>
      </trkpt>
      <trkpt lat="42.21503" lon="8.81891">
        <ele>988.37</ele>
        <time>2026-05-03T12:53:45Z</time>
      </trkpt>
      <trkpt lat="42.21509" lon="8.8188">
        <ele>987.41</ele>
        <time>2026-05-03T12:53:57Z</time>
      </trkpt>
      <trkpt lat="42.21517" lon="8.81874">
        <ele>989.33</ele>
        <time>2026-05-03T12:54:06Z</time>
      </trkpt>
      <trkpt lat="42.21519" lon="8.81869">
        <ele>990.3</ele>
        <time>2026-05-03T12:54:12Z</time>
      </trkpt>
      <trkpt lat="42.21524" lon="8.81862">
        <ele>990.78</ele>
        <time>2026-05-03T12:54:22Z</time>
      </trkpt>
      <trkpt lat="42.21522" lon="8.81863">
        <ele>989.81</ele>
        <time>2026-05-03T12:54:40Z</time>
      </trkpt>
      <trkpt lat="42.21525" lon="8.81859">
        <ele>990.78</ele>
        <time>2026-05-03T12:54:55Z</time>
      </trkpt>
      <trkpt lat="42.21526" lon="8.81856">
        <ele>991.74</ele>
        <time>2026-05-03T12:54:58Z</time>
      </trkpt>
      <trkpt lat="42.21533" lon="8.81851">
        <ele>994.62</ele>
        <time>2026-05-03T12:55:08Z</time>
      </trkpt>
      <trkpt lat="42.21539" lon="8.81846">
        <ele>994.62</ele>
        <time>2026-05-03T12:55:25Z</time>
      </trkpt>
      <trkpt lat="42.21547" lon="8.81843">
        <ele>997.51</ele>
        <time>2026-05-03T12:55:36Z</time>
      </trkpt>
      <trkpt lat="42.21554" lon="8.81842">
        <ele>1000.39</ele>
        <time>2026-05-03T12:55:48Z</time>
      </trkpt>
      <trkpt lat="42.21561" lon="8.81838">
        <ele>1000.87</ele>
        <time>2026-05-03T12:55:58Z</time>
      </trkpt>
      <trkpt lat="42.21569" lon="8.81834">
        <ele>1000.39</ele>
        <time>2026-05-03T12:56:11Z</time>
      </trkpt>
      <trkpt lat="42.21575" lon="8.81827">
        <ele>1000.87</ele>
        <time>2026-05-03T12:56:25Z</time>
      </trkpt>
      <trkpt lat="42.21575" lon="8.81825">
        <ele>1001.35</ele>
        <time>2026-05-03T12:56:26Z</time>
      </trkpt>
      <trkpt lat="42.21576" lon="8.81813">
        <ele>999.91</ele>
        <time>2026-05-03T12:56:37Z</time>
      </trkpt>
      <trkpt lat="42.21576" lon="8.81808">
        <ele>999.43</ele>
        <time>2026-05-03T12:57:03Z</time>
      </trkpt>
      <trkpt lat="42.21576" lon="8.81808">
        <ele>1001.35</ele>
        <time>2026-05-03T12:57:10Z</time>
      </trkpt>
      <trkpt lat="42.2157" lon="8.81799">
        <ele>1000.87</ele>
        <time>2026-05-03T12:57:20Z</time>
      </trkpt>
      <trkpt lat="42.21562" lon="8.81796">
        <ele>1002.31</ele>
        <time>2026-05-03T12:57:40Z</time>
      </trkpt>
      <trkpt lat="42.21553" lon="8.81786">
        <ele>1001.35</ele>
        <time>2026-05-03T12:57:53Z</time>
      </trkpt>
      <trkpt lat="42.21546" lon="8.81781">
        <ele>1000.87</ele>
        <time>2026-05-03T12:58:05Z</time>
      </trkpt>
      <trkpt lat="42.21541" lon="8.81778">
        <ele>1001.35</ele>
        <time>2026-05-03T12:58:24Z</time>
      </trkpt>
      <trkpt lat="42.21532" lon="8.81771">
        <ele>1001.83</ele>
        <time>2026-05-03T12:58:37Z</time>
      </trkpt>
      <trkpt lat="42.21524" lon="8.81768">
        <ele>1002.79</ele>
        <time>2026-05-03T12:58:49Z</time>
      </trkpt>
      <trkpt lat="42.21514" lon="8.81762">
        <ele>1004.23</ele>
        <time>2026-05-03T12:59:04Z</time>
      </trkpt>
      <trkpt lat="42.21509" lon="8.8175">
        <ele>1004.23</ele>
        <time>2026-05-03T12:59:19Z</time>
      </trkpt>
      <trkpt lat="42.21505" lon="8.81741">
        <ele>1002.31</ele>
        <time>2026-05-03T12:59:31Z</time>
      </trkpt>
      <trkpt lat="42.21504" lon="8.81736">
        <ele>1002.79</ele>
        <time>2026-05-03T12:59:40Z</time>
      </trkpt>
      <trkpt lat="42.21498" lon="8.8173">
        <ele>1005.2</ele>
        <time>2026-05-03T12:59:58Z</time>
      </trkpt>
      <trkpt lat="42.21494" lon="8.81728">
        <ele>1005.68</ele>
        <time>2026-05-03T13:00:03Z</time>
      </trkpt>
      <trkpt lat="42.21485" lon="8.8173">
        <ele>1005.2</ele>
        <time>2026-05-03T13:00:14Z</time>
      </trkpt>
      <trkpt lat="42.21484" lon="8.81732">
        <ele>1004.23</ele>
        <time>2026-05-03T13:00:31Z</time>
      </trkpt>
      <trkpt lat="42.21479" lon="8.81738">
        <ele>1006.16</ele>
        <time>2026-05-03T13:00:42Z</time>
      </trkpt>
      <trkpt lat="42.21471" lon="8.81751">
        <ele>1008.08</ele>
        <time>2026-05-03T13:00:54Z</time>
      </trkpt>
      <trkpt lat="42.21464" lon="8.81762">
        <ele>1010</ele>
        <time>2026-05-03T13:01:06Z</time>
      </trkpt>
      <trkpt lat="42.21458" lon="8.8177">
        <ele>1010.48</ele>
        <time>2026-05-03T13:01:17Z</time>
      </trkpt>
      <trkpt lat="42.21451" lon="8.81775">
        <ele>1010.48</ele>
        <time>2026-05-03T13:01:28Z</time>
      </trkpt>
      <trkpt lat="42.21442" lon="8.81774">
        <ele>1011.93</ele>
        <time>2026-05-03T13:01:40Z</time>
      </trkpt>
      <trkpt lat="42.21435" lon="8.81771">
        <ele>1013.37</ele>
        <time>2026-05-03T13:01:52Z</time>
      </trkpt>
      <trkpt lat="42.21427" lon="8.81765">
        <ele>1012.41</ele>
        <time>2026-05-03T13:02:05Z</time>
      </trkpt>
      <trkpt lat="42.21421" lon="8.8176">
        <ele>1012.41</ele>
        <time>2026-05-03T13:02:19Z</time>
      </trkpt>
      <trkpt lat="42.21414" lon="8.8175">
        <ele>1012.89</ele>
        <time>2026-05-03T13:02:33Z</time>
      </trkpt>
      <trkpt lat="42.21411" lon="8.81752">
        <ele>1012.89</ele>
        <time>2026-05-03T13:02:48Z</time>
      </trkpt>
      <trkpt lat="42.21409" lon="8.81754">
        <ele>1010.96</ele>
        <time>2026-05-03T13:03:11Z</time>
      </trkpt>
      <trkpt lat="42.21406" lon="8.81745">
        <ele>1012.41</ele>
        <time>2026-05-03T13:03:30Z</time>
      </trkpt>
      <trkpt lat="42.21406" lon="8.81741">
        <ele>1013.37</ele>
        <time>2026-05-03T13:03:42Z</time>
      </trkpt>
      <trkpt lat="42.21395" lon="8.81742">
        <ele>1017.69</ele>
        <time>2026-05-03T13:03:53Z</time>
      </trkpt>
      <trkpt lat="42.21389" lon="8.81754">
        <ele>1018.65</ele>
        <time>2026-05-03T13:04:03Z</time>
      </trkpt>
      <trkpt lat="42.21386" lon="8.81757">
        <ele>1019.13</ele>
        <time>2026-05-03T13:04:07Z</time>
      </trkpt>
      <trkpt lat="42.21384" lon="8.81766">
        <ele>1018.17</ele>
        <time>2026-05-03T13:04:14Z</time>
      </trkpt>
      <trkpt lat="42.21385" lon="8.81777">
        <ele>1018.17</ele>
        <time>2026-05-03T13:04:23Z</time>
      </trkpt>
      <trkpt lat="42.21385" lon="8.8179">
        <ele>1018.65</ele>
        <time>2026-05-03T13:04:35Z</time>
      </trkpt>
      <trkpt lat="42.21385" lon="8.81801">
        <ele>1018.65</ele>
        <time>2026-05-03T13:04:45Z</time>
      </trkpt>
      <trkpt lat="42.21383" lon="8.81808">
        <ele>1018.65</ele>
        <time>2026-05-03T13:04:55Z</time>
      </trkpt>
      <trkpt lat="42.21378" lon="8.81808">
        <ele>1019.62</ele>
        <time>2026-05-03T13:05:05Z</time>
      </trkpt>
      <trkpt lat="42.21375" lon="8.818">
        <ele>1020.1</ele>
        <time>2026-05-03T13:05:18Z</time>
      </trkpt>
      <trkpt lat="42.21371" lon="8.81793">
        <ele>1021.06</ele>
        <time>2026-05-03T13:05:29Z</time>
      </trkpt>
      <trkpt lat="42.21368" lon="8.81783">
        <ele>1020.58</ele>
        <time>2026-05-03T13:05:40Z</time>
      </trkpt>
      <trkpt lat="42.21366" lon="8.8178">
        <ele>1020.58</ele>
        <time>2026-05-03T13:05:55Z</time>
      </trkpt>
      <trkpt lat="42.21364" lon="8.81783">
        <ele>1019.62</ele>
        <time>2026-05-03T13:06:08Z</time>
      </trkpt>
      <trkpt lat="42.21362" lon="8.81772">
        <ele>1018.17</ele>
        <time>2026-05-03T13:06:19Z</time>
      </trkpt>
      <trkpt lat="42.21357" lon="8.81763">
        <ele>1019.13</ele>
        <time>2026-05-03T13:06:29Z</time>
      </trkpt>
      <trkpt lat="42.21351" lon="8.81753">
        <ele>1019.13</ele>
        <time>2026-05-03T13:06:41Z</time>
      </trkpt>
      <trkpt lat="42.21347" lon="8.81749">
        <ele>1019.62</ele>
        <time>2026-05-03T13:06:46Z</time>
      </trkpt>
      <trkpt lat="42.21337" lon="8.81744">
        <ele>1021.06</ele>
        <time>2026-05-03T13:06:58Z</time>
      </trkpt>
      <trkpt lat="42.21329" lon="8.8174">
        <ele>1021.06</ele>
        <time>2026-05-03T13:07:11Z</time>
      </trkpt>
      <trkpt lat="42.21322" lon="8.81735">
        <ele>1021.54</ele>
        <time>2026-05-03T13:07:28Z</time>
      </trkpt>
      <trkpt lat="42.21315" lon="8.81728">
        <ele>1023.46</ele>
        <time>2026-05-03T13:07:43Z</time>
      </trkpt>
      <trkpt lat="42.21315" lon="8.81724">
        <ele>1024.9</ele>
        <time>2026-05-03T13:08:13Z</time>
      </trkpt>
      <trkpt lat="42.2132" lon="8.81725">
        <ele>1022.5</ele>
        <time>2026-05-03T13:08:24Z</time>
      </trkpt>
      <trkpt lat="42.21321" lon="8.81725">
        <ele>1022.5</ele>
        <time>2026-05-03T13:08:26Z</time>
      </trkpt>
      <trkpt lat="42.21327" lon="8.81726">
        <ele>1022.98</ele>
        <time>2026-05-03T13:08:35Z</time>
      </trkpt>
      <trkpt lat="42.2133" lon="8.81727">
        <ele>1022.5</ele>
        <time>2026-05-03T13:08:39Z</time>
      </trkpt>
      <trkpt lat="42.21337" lon="8.81733">
        <ele>1022.02</ele>
        <time>2026-05-03T13:08:50Z</time>
      </trkpt>
      <trkpt lat="42.21343" lon="8.81737">
        <ele>1021.54</ele>
        <time>2026-05-03T13:08:58Z</time>
      </trkpt>
      <trkpt lat="42.21344" lon="8.81738">
        <ele>1021.06</ele>
        <time>2026-05-03T13:08:59Z</time>
      </trkpt>
      <trkpt lat="42.21353" lon="8.81744">
        <ele>1022.5</ele>
        <time>2026-05-03T13:09:10Z</time>
      </trkpt>
      <trkpt lat="42.21362" lon="8.81739">
        <ele>1022.98</ele>
        <time>2026-05-03T13:09:20Z</time>
      </trkpt>
      <trkpt lat="42.21363" lon="8.81739">
        <ele>1022.98</ele>
        <time>2026-05-03T13:09:21Z</time>
      </trkpt>
      <trkpt lat="42.21365" lon="8.81737">
        <ele>1023.46</ele>
        <time>2026-05-03T13:09:24Z</time>
      </trkpt>
      <trkpt lat="42.2137" lon="8.81727">
        <ele>1024.42</ele>
        <time>2026-05-03T13:09:35Z</time>
      </trkpt>
      <trkpt lat="42.21373" lon="8.81719">
        <ele>1024.42</ele>
        <time>2026-05-03T13:09:51Z</time>
      </trkpt>
      <trkpt lat="42.21379" lon="8.81706">
        <ele>1024.42</ele>
        <time>2026-05-03T13:10:03Z</time>
      </trkpt>
      <trkpt lat="42.21381" lon="8.81703">
        <ele>1024.42</ele>
        <time>2026-05-03T13:10:06Z</time>
      </trkpt>
      <trkpt lat="42.21383" lon="8.81693">
        <ele>1024.42</ele>
        <time>2026-05-03T13:10:16Z</time>
      </trkpt>
      <trkpt lat="42.21385" lon="8.81682">
        <ele>1026.83</ele>
        <time>2026-05-03T13:10:27Z</time>
      </trkpt>
      <trkpt lat="42.21388" lon="8.81671">
        <ele>1028.75</ele>
        <time>2026-05-03T13:10:42Z</time>
      </trkpt>
      <trkpt lat="42.21393" lon="8.81656">
        <ele>1031.15</ele>
        <time>2026-05-03T13:10:56Z</time>
      </trkpt>
      <trkpt lat="42.21396" lon="8.81648">
        <ele>1031.63</ele>
        <time>2026-05-03T13:11:07Z</time>
      </trkpt>
      <trkpt lat="42.21396" lon="8.81641">
        <ele>1032.59</ele>
        <time>2026-05-03T13:11:23Z</time>
      </trkpt>
      <trkpt lat="42.21393" lon="8.81639">
        <ele>1033.07</ele>
        <time>2026-05-03T13:11:41Z</time>
      </trkpt>
      <trkpt lat="42.21396" lon="8.81632">
        <ele>1033.07</ele>
        <time>2026-05-03T13:11:55Z</time>
      </trkpt>
      <trkpt lat="42.2139" lon="8.81625">
        <ele>1035.48</ele>
        <time>2026-05-03T13:12:07Z</time>
      </trkpt>
      <trkpt lat="42.21388" lon="8.81619">
        <ele>1037.4</ele>
        <time>2026-05-03T13:12:19Z</time>
      </trkpt>
      <trkpt lat="42.21386" lon="8.81612">
        <ele>1036.44</ele>
        <time>2026-05-03T13:12:29Z</time>
      </trkpt>
      <trkpt lat="42.21383" lon="8.81604">
        <ele>1035.96</ele>
        <time>2026-05-03T13:12:41Z</time>
      </trkpt>
      <trkpt lat="42.2138" lon="8.81599">
        <ele>1037.88</ele>
        <time>2026-05-03T13:12:56Z</time>
      </trkpt>
      <trkpt lat="42.2138" lon="8.81595">
        <ele>1041.25</ele>
        <time>2026-05-03T13:13:12Z</time>
      </trkpt>
      <trkpt lat="42.21385" lon="8.81585">
        <ele>1040.76</ele>
        <time>2026-05-03T13:13:27Z</time>
      </trkpt>
      <trkpt lat="42.21389" lon="8.81576">
        <ele>1043.17</ele>
        <time>2026-05-03T13:13:40Z</time>
      </trkpt>
      <trkpt lat="42.21391" lon="8.8157">
        <ele>1045.09</ele>
        <time>2026-05-03T13:13:54Z</time>
      </trkpt>
      <trkpt lat="42.21391" lon="8.8157">
        <ele>1045.09</ele>
        <time>2026-05-03T13:13:55Z</time>
      </trkpt>
      <trkpt lat="42.21392" lon="8.81564">
        <ele>1046.53</ele>
        <time>2026-05-03T13:14:04Z</time>
      </trkpt>
      <trkpt lat="42.21396" lon="8.81558">
        <ele>1047.49</ele>
        <time>2026-05-03T13:14:16Z</time>
      </trkpt>
      <trkpt lat="42.21397" lon="8.81552">
        <ele>1049.42</ele>
        <time>2026-05-03T13:14:27Z</time>
      </trkpt>
      <trkpt lat="42.21399" lon="8.81548">
        <ele>1049.9</ele>
        <time>2026-05-03T13:14:43Z</time>
      </trkpt>
      <trkpt lat="42.21398" lon="8.81553">
        <ele>1051.82</ele>
        <time>2026-05-03T13:15:09Z</time>
      </trkpt>
      <trkpt lat="42.21398" lon="8.81544">
        <ele>1051.82</ele>
        <time>2026-05-03T13:15:23Z</time>
      </trkpt>
      <trkpt lat="42.21399" lon="8.81533">
        <ele>1052.3</ele>
        <time>2026-05-03T13:15:34Z</time>
      </trkpt>
      <trkpt lat="42.21403" lon="8.81526">
        <ele>1053.26</ele>
        <time>2026-05-03T13:15:44Z</time>
      </trkpt>
      <trkpt lat="42.21408" lon="8.81519">
        <ele>1054.7</ele>
        <time>2026-05-03T13:15:54Z</time>
      </trkpt>
      <trkpt lat="42.21415" lon="8.81511">
        <ele>1055.18</ele>
        <time>2026-05-03T13:16:04Z</time>
      </trkpt>
      <trkpt lat="42.21416" lon="8.81502">
        <ele>1055.18</ele>
        <time>2026-05-03T13:16:14Z</time>
      </trkpt>
      <trkpt lat="42.21418" lon="8.81494">
        <ele>1057.11</ele>
        <time>2026-05-03T13:16:25Z</time>
      </trkpt>
      <trkpt lat="42.21416" lon="8.81484">
        <ele>1057.59</ele>
        <time>2026-05-03T13:16:41Z</time>
      </trkpt>
      <trkpt lat="42.21419" lon="8.81474">
        <ele>1055.67</ele>
        <time>2026-05-03T13:16:54Z</time>
      </trkpt>
      <trkpt lat="42.21415" lon="8.81472">
        <ele>1055.67</ele>
        <time>2026-05-03T13:17:06Z</time>
      </trkpt>
      <trkpt lat="42.21412" lon="8.81472">
        <ele>1056.63</ele>
        <time>2026-05-03T13:17:28Z</time>
      </trkpt>
      <trkpt lat="42.21407" lon="8.81464">
        <ele>1059.99</ele>
        <time>2026-05-03T13:17:48Z</time>
      </trkpt>
      <trkpt lat="42.21412" lon="8.81467">
        <ele>1061.91</ele>
        <time>2026-05-03T13:18:17Z</time>
      </trkpt>
      <trkpt lat="42.21414" lon="8.81466">
        <ele>1058.07</ele>
        <time>2026-05-03T13:18:42Z</time>
      </trkpt>
      <trkpt lat="42.21413" lon="8.81466">
        <ele>1056.15</ele>
        <time>2026-05-03T13:19:03Z</time>
      </trkpt>
      <trkpt lat="42.21416" lon="8.81468">
        <ele>1055.18</ele>
        <time>2026-05-03T13:19:18Z</time>
      </trkpt>
      <trkpt lat="42.21422" lon="8.81469">
        <ele>1052.3</ele>
        <time>2026-05-03T13:19:50Z</time>
      </trkpt>
      <trkpt lat="42.21426" lon="8.81473">
        <ele>1053.26</ele>
        <time>2026-05-03T13:19:57Z</time>
      </trkpt>
      <trkpt lat="42.21435" lon="8.81475">
        <ele>1055.67</ele>
        <time>2026-05-03T13:20:09Z</time>
      </trkpt>
      <trkpt lat="42.21447" lon="8.81477">
        <ele>1056.63</ele>
        <time>2026-05-03T13:20:24Z</time>
      </trkpt>
      <trkpt lat="42.21456" lon="8.81474">
        <ele>1055.18</ele>
        <time>2026-05-03T13:20:38Z</time>
      </trkpt>
      <trkpt lat="42.21467" lon="8.81467">
        <ele>1055.18</ele>
        <time>2026-05-03T13:20:53Z</time>
      </trkpt>
      <trkpt lat="42.21474" lon="8.81458">
        <ele>1059.03</ele>
        <time>2026-05-03T13:21:17Z</time>
      </trkpt>
      <trkpt lat="42.21476" lon="8.81452">
        <ele>1060.47</ele>
        <time>2026-05-03T13:21:34Z</time>
      </trkpt>
      <trkpt lat="42.2148" lon="8.81448">
        <ele>1060.95</ele>
        <time>2026-05-03T13:21:48Z</time>
      </trkpt>
      <trkpt lat="42.21486" lon="8.81437">
        <ele>1063.84</ele>
        <time>2026-05-03T13:22:06Z</time>
      </trkpt>
      <trkpt lat="42.21491" lon="8.81424">
        <ele>1067.68</ele>
        <time>2026-05-03T13:22:19Z</time>
      </trkpt>
      <trkpt lat="42.21495" lon="8.81414">
        <ele>1067.2</ele>
        <time>2026-05-03T13:22:30Z</time>
      </trkpt>
      <trkpt lat="42.21499" lon="8.81407">
        <ele>1068.16</ele>
        <time>2026-05-03T13:22:40Z</time>
      </trkpt>
      <trkpt lat="42.21501" lon="8.814">
        <ele>1068.64</ele>
        <time>2026-05-03T13:22:49Z</time>
      </trkpt>
      <trkpt lat="42.21503" lon="8.81394">
        <ele>1068.16</ele>
        <time>2026-05-03T13:22:59Z</time>
      </trkpt>
      <trkpt lat="42.21504" lon="8.81389">
        <ele>1068.16</ele>
        <time>2026-05-03T13:23:04Z</time>
      </trkpt>
      <trkpt lat="42.21506" lon="8.81379">
        <ele>1069.12</ele>
        <time>2026-05-03T13:23:13Z</time>
      </trkpt>
      <trkpt lat="42.21509" lon="8.8137">
        <ele>1069.12</ele>
        <time>2026-05-03T13:23:23Z</time>
      </trkpt>
      <trkpt lat="42.21514" lon="8.81361">
        <ele>1069.12</ele>
        <time>2026-05-03T13:23:34Z</time>
      </trkpt>
      <trkpt lat="42.21519" lon="8.81353">
        <ele>1068.64</ele>
        <time>2026-05-03T13:23:45Z</time>
      </trkpt>
      <trkpt lat="42.21526" lon="8.81346">
        <ele>1069.6</ele>
        <time>2026-05-03T13:23:55Z</time>
      </trkpt>
      <trkpt lat="42.21532" lon="8.81339">
        <ele>1070.57</ele>
        <time>2026-05-03T13:24:07Z</time>
      </trkpt>
      <trkpt lat="42.21537" lon="8.81331">
        <ele>1070.57</ele>
        <time>2026-05-03T13:24:18Z</time>
      </trkpt>
      <trkpt lat="42.21543" lon="8.81324">
        <ele>1071.53</ele>
        <time>2026-05-03T13:24:29Z</time>
      </trkpt>
      <trkpt lat="42.21547" lon="8.81316">
        <ele>1072.01</ele>
        <time>2026-05-03T13:24:40Z</time>
      </trkpt>
      <trkpt lat="42.21552" lon="8.81308">
        <ele>1072.01</ele>
        <time>2026-05-03T13:24:51Z</time>
      </trkpt>
      <trkpt lat="42.21555" lon="8.81305">
        <ele>1071.05</ele>
        <time>2026-05-03T13:25:04Z</time>
      </trkpt>
      <trkpt lat="42.21555" lon="8.81302">
        <ele>1071.53</ele>
        <time>2026-05-03T13:25:12Z</time>
      </trkpt>
      <trkpt lat="42.21556" lon="8.81299">
        <ele>1072.01</ele>
        <time>2026-05-03T13:25:24Z</time>
      </trkpt>
      <trkpt lat="42.21559" lon="8.81291">
        <ele>1073.45</ele>
        <time>2026-05-03T13:25:41Z</time>
      </trkpt>
      <trkpt lat="42.21562" lon="8.8128">
        <ele>1074.89</ele>
        <time>2026-05-03T13:25:51Z</time>
      </trkpt>
      <trkpt lat="42.21565" lon="8.81273">
        <ele>1075.85</ele>
        <time>2026-05-03T13:25:59Z</time>
      </trkpt>
      <trkpt lat="42.2157" lon="8.8127">
        <ele>1076.33</ele>
        <time>2026-05-03T13:26:05Z</time>
      </trkpt>
      <trkpt lat="42.21577" lon="8.81271">
        <ele>1076.81</ele>
        <time>2026-05-03T13:26:15Z</time>
      </trkpt>
      <trkpt lat="42.21581" lon="8.81272">
        <ele>1077.29</ele>
        <time>2026-05-03T13:26:26Z</time>
      </trkpt>
      <trkpt lat="42.21588" lon="8.81273">
        <ele>1078.26</ele>
        <time>2026-05-03T13:26:36Z</time>
      </trkpt>
      <trkpt lat="42.21596" lon="8.81274">
        <ele>1079.22</ele>
        <time>2026-05-03T13:26:48Z</time>
      </trkpt>
      <trkpt lat="42.21601" lon="8.81274">
        <ele>1079.7</ele>
        <time>2026-05-03T13:26:59Z</time>
      </trkpt>
      <trkpt lat="42.216" lon="8.81272">
        <ele>1082.1</ele>
        <time>2026-05-03T13:27:28Z</time>
      </trkpt>
      <trkpt lat="42.21602" lon="8.81274">
        <ele>1081.62</ele>
        <time>2026-05-03T13:27:50Z</time>
      </trkpt>
      <trkpt lat="42.21604" lon="8.81277">
        <ele>1080.66</ele>
        <time>2026-05-03T13:28:15Z</time>
      </trkpt>
      <trkpt lat="42.21604" lon="8.81276">
        <ele>1080.18</ele>
        <time>2026-05-03T13:28:30Z</time>
      </trkpt>
      <trkpt lat="42.21609" lon="8.81274">
        <ele>1079.7</ele>
        <time>2026-05-03T13:28:44Z</time>
      </trkpt>
      <trkpt lat="42.21612" lon="8.81273">
        <ele>1077.29</ele>
        <time>2026-05-03T13:28:59Z</time>
      </trkpt>
      <trkpt lat="42.21615" lon="8.81268">
        <ele>1076.33</ele>
        <time>2026-05-03T13:29:13Z</time>
      </trkpt>
      <trkpt lat="42.21618" lon="8.81264">
        <ele>1074.89</ele>
        <time>2026-05-03T13:29:25Z</time>
      </trkpt>
      <trkpt lat="42.2162" lon="8.8126">
        <ele>1072.97</ele>
        <time>2026-05-03T13:29:39Z</time>
      </trkpt>
      <trkpt lat="42.21621" lon="8.81257">
        <ele>1071.05</ele>
        <time>2026-05-03T13:29:57Z</time>
      </trkpt>
      <trkpt lat="42.21621" lon="8.8125">
        <ele>1070.57</ele>
        <time>2026-05-03T13:30:10Z</time>
      </trkpt>
      <trkpt lat="42.21622" lon="8.81242">
        <ele>1069.6</ele>
        <time>2026-05-03T13:30:24Z</time>
      </trkpt>
      <trkpt lat="42.2162" lon="8.81237">
        <ele>1068.16</ele>
        <time>2026-05-03T13:30:39Z</time>
      </trkpt>
      <trkpt lat="42.21621" lon="8.81237">
        <ele>1065.76</ele>
        <time>2026-05-03T13:31:11Z</time>
      </trkpt>
      <trkpt lat="42.21622" lon="8.81231">
        <ele>1065.76</ele>
        <time>2026-05-03T13:31:28Z</time>
      </trkpt>
      <trkpt lat="42.21623" lon="8.81223">
        <ele>1064.32</ele>
        <time>2026-05-03T13:31:43Z</time>
      </trkpt>
      <trkpt lat="42.21626" lon="8.81216">
        <ele>1063.36</ele>
        <time>2026-05-03T13:31:53Z</time>
      </trkpt>
      <trkpt lat="42.21628" lon="8.8121">
        <ele>1063.36</ele>
        <time>2026-05-03T13:32:00Z</time>
      </trkpt>
      <trkpt lat="42.21631" lon="8.81207">
        <ele>1063.84</ele>
        <time>2026-05-03T13:32:05Z</time>
      </trkpt>
      <trkpt lat="42.21629" lon="8.812">
        <ele>1062.87</ele>
        <time>2026-05-03T13:32:18Z</time>
      </trkpt>
      <trkpt lat="42.21633" lon="8.81198">
        <ele>1062.39</ele>
        <time>2026-05-03T13:32:29Z</time>
      </trkpt>
      <trkpt lat="42.21634" lon="8.81199">
        <ele>1062.39</ele>
        <time>2026-05-03T13:32:31Z</time>
      </trkpt>
      <trkpt lat="42.21642" lon="8.81202">
        <ele>1063.36</ele>
        <time>2026-05-03T13:32:43Z</time>
      </trkpt>
      <trkpt lat="42.21649" lon="8.81203">
        <ele>1062.39</ele>
        <time>2026-05-03T13:32:53Z</time>
      </trkpt>
      <trkpt lat="42.21655" lon="8.81205">
        <ele>1061.91</ele>
        <time>2026-05-03T13:33:05Z</time>
      </trkpt>
      <trkpt lat="42.21659" lon="8.81204">
        <ele>1062.39</ele>
        <time>2026-05-03T13:33:19Z</time>
      </trkpt>
      <trkpt lat="42.21663" lon="8.81204">
        <ele>1060.95</ele>
        <time>2026-05-03T13:33:32Z</time>
      </trkpt>
      <trkpt lat="42.21667" lon="8.812">
        <ele>1060.95</ele>
        <time>2026-05-03T13:33:42Z</time>
      </trkpt>
      <trkpt lat="42.21672" lon="8.81195">
        <ele>1059.99</ele>
        <time>2026-05-03T13:33:52Z</time>
      </trkpt>
      <trkpt lat="42.21678" lon="8.81189">
        <ele>1060.47</ele>
        <time>2026-05-03T13:34:03Z</time>
      </trkpt>
      <trkpt lat="42.21683" lon="8.81188">
        <ele>1059.99</ele>
        <time>2026-05-03T13:34:13Z</time>
      </trkpt>
      <trkpt lat="42.21685" lon="8.81181">
        <ele>1058.55</ele>
        <time>2026-05-03T13:34:33Z</time>
      </trkpt>
      <trkpt lat="42.21688" lon="8.81178">
        <ele>1057.59</ele>
        <time>2026-05-03T13:34:47Z</time>
      </trkpt>
      <trkpt lat="42.21692" lon="8.81174">
        <ele>1055.67</ele>
        <time>2026-05-03T13:35:04Z</time>
      </trkpt>
      <trkpt lat="42.217" lon="8.81166">
        <ele>1053.74</ele>
        <time>2026-05-03T13:35:24Z</time>
      </trkpt>
      <trkpt lat="42.21703" lon="8.81159">
        <ele>1051.82</ele>
        <time>2026-05-03T13:35:36Z</time>
      </trkpt>
      <trkpt lat="42.21704" lon="8.81158">
        <ele>1051.82</ele>
        <time>2026-05-03T13:35:38Z</time>
      </trkpt>
      <trkpt lat="42.21708" lon="8.81154">
        <ele>1051.82</ele>
        <time>2026-05-03T13:35:48Z</time>
      </trkpt>
      <trkpt lat="42.2171" lon="8.81151">
        <ele>1052.3</ele>
        <time>2026-05-03T13:36:02Z</time>
      </trkpt>
      <trkpt lat="42.21713" lon="8.81151">
        <ele>1052.78</ele>
        <time>2026-05-03T13:36:26Z</time>
      </trkpt>
      <trkpt lat="42.21719" lon="8.81148">
        <ele>1052.78</ele>
        <time>2026-05-03T13:36:40Z</time>
      </trkpt>
      <trkpt lat="42.21723" lon="8.81139">
        <ele>1050.86</ele>
        <time>2026-05-03T13:36:55Z</time>
      </trkpt>
      <trkpt lat="42.21724" lon="8.81138">
        <ele>1050.86</ele>
        <time>2026-05-03T13:36:56Z</time>
      </trkpt>
      <trkpt lat="42.21725" lon="8.8113">
        <ele>1051.34</ele>
        <time>2026-05-03T13:37:07Z</time>
      </trkpt>
      <trkpt lat="42.21728" lon="8.81124">
        <ele>1051.34</ele>
        <time>2026-05-03T13:37:22Z</time>
      </trkpt>
      <trkpt lat="42.21728" lon="8.81122">
        <ele>1051.34</ele>
        <time>2026-05-03T13:37:27Z</time>
      </trkpt>
      <trkpt lat="42.2173" lon="8.81121">
        <ele>1051.82</ele>
        <time>2026-05-03T13:37:31Z</time>
      </trkpt>
      <trkpt lat="42.2173" lon="8.81116">
        <ele>1052.78</ele>
        <time>2026-05-03T13:37:44Z</time>
      </trkpt>
      <trkpt lat="42.21731" lon="8.81111">
        <ele>1052.3</ele>
        <time>2026-05-03T13:37:57Z</time>
      </trkpt>
      <trkpt lat="42.21731" lon="8.81108">
        <ele>1052.3</ele>
        <time>2026-05-03T13:38:16Z</time>
      </trkpt>
      <trkpt lat="42.21732" lon="8.81108">
        <ele>1054.22</ele>
        <time>2026-05-03T13:38:33Z</time>
      </trkpt>
      <trkpt lat="42.21735" lon="8.81099">
        <ele>1054.7</ele>
        <time>2026-05-03T13:38:50Z</time>
      </trkpt>
      <trkpt lat="42.21738" lon="8.81093">
        <ele>1054.7</ele>
        <time>2026-05-03T13:39:02Z</time>
      </trkpt>
      <trkpt lat="42.2174" lon="8.81086">
        <ele>1055.18</ele>
        <time>2026-05-03T13:39:13Z</time>
      </trkpt>
      <trkpt lat="42.21741" lon="8.81079">
        <ele>1055.18</ele>
        <time>2026-05-03T13:39:22Z</time>
      </trkpt>
      <trkpt lat="42.21742" lon="8.81075">
        <ele>1054.22</ele>
        <time>2026-05-03T13:39:37Z</time>
      </trkpt>
      <trkpt lat="42.21743" lon="8.81067">
        <ele>1054.22</ele>
        <time>2026-05-03T13:39:48Z</time>
      </trkpt>
      <trkpt lat="42.21744" lon="8.81063">
        <ele>1055.18</ele>
        <time>2026-05-03T13:40:03Z</time>
      </trkpt>
      <trkpt lat="42.21745" lon="8.8106">
        <ele>1055.18</ele>
        <time>2026-05-03T13:40:15Z</time>
      </trkpt>
      <trkpt lat="42.21748" lon="8.81059">
        <ele>1057.11</ele>
        <time>2026-05-03T13:40:28Z</time>
      </trkpt>
      <trkpt lat="42.21749" lon="8.81058">
        <ele>1056.63</ele>
        <time>2026-05-03T13:40:30Z</time>
      </trkpt>
      <trkpt lat="42.21749" lon="8.81058">
        <ele>1057.11</ele>
        <time>2026-05-03T13:40:45Z</time>
      </trkpt>
      <trkpt lat="42.21747" lon="8.81055">
        <ele>1056.15</ele>
        <time>2026-05-03T13:41:01Z</time>
      </trkpt>
      <trkpt lat="42.2175" lon="8.81049">
        <ele>1055.18</ele>
        <time>2026-05-03T13:41:25Z</time>
      </trkpt>
      <trkpt lat="42.21753" lon="8.81041">
        <ele>1053.26</ele>
        <time>2026-05-03T13:41:47Z</time>
      </trkpt>
      <trkpt lat="42.21753" lon="8.8104">
        <ele>1053.26</ele>
        <time>2026-05-03T13:41:49Z</time>
      </trkpt>
      <trkpt lat="42.21754" lon="8.81031">
        <ele>1053.74</ele>
        <time>2026-05-03T13:41:58Z</time>
      </trkpt>
      <trkpt lat="42.21755" lon="8.81024">
        <ele>1054.7</ele>
        <time>2026-05-03T13:42:07Z</time>
      </trkpt>
      <trkpt lat="42.21756" lon="8.81021">
        <ele>1057.11</ele>
        <time>2026-05-03T13:42:17Z</time>
      </trkpt>
      <trkpt lat="42.21757" lon="8.81014">
        <ele>1057.11</ele>
        <time>2026-05-03T13:42:30Z</time>
      </trkpt>
      <trkpt lat="42.21757" lon="8.81012">
        <ele>1057.59</ele>
        <time>2026-05-03T13:42:48Z</time>
      </trkpt>
      <trkpt lat="42.21758" lon="8.81007">
        <ele>1058.55</ele>
        <time>2026-05-03T13:43:04Z</time>
      </trkpt>
      <trkpt lat="42.2176" lon="8.81007">
        <ele>1059.03</ele>
        <time>2026-05-03T13:43:17Z</time>
      </trkpt>
      <trkpt lat="42.21761" lon="8.81004">
        <ele>1058.07</ele>
        <time>2026-05-03T13:43:39Z</time>
      </trkpt>
      <trkpt lat="42.21763" lon="8.80997">
        <ele>1059.03</ele>
        <time>2026-05-03T13:43:54Z</time>
      </trkpt>
      <trkpt lat="42.21766" lon="8.80992">
        <ele>1059.03</ele>
        <time>2026-05-03T13:44:03Z</time>
      </trkpt>
      <trkpt lat="42.21768" lon="8.80991">
        <ele>1059.03</ele>
        <time>2026-05-03T13:44:05Z</time>
      </trkpt>
      <trkpt lat="42.21772" lon="8.80988">
        <ele>1060.47</ele>
        <time>2026-05-03T13:44:14Z</time>
      </trkpt>
      <trkpt lat="42.21776" lon="8.80982">
        <ele>1061.91</ele>
        <time>2026-05-03T13:44:27Z</time>
      </trkpt>
      <trkpt lat="42.21779" lon="8.80974">
        <ele>1062.39</ele>
        <time>2026-05-03T13:44:40Z</time>
      </trkpt>
      <trkpt lat="42.21782" lon="8.80966">
        <ele>1063.36</ele>
        <time>2026-05-03T13:44:50Z</time>
      </trkpt>
      <trkpt lat="42.21783" lon="8.8096">
        <ele>1064.8</ele>
        <time>2026-05-03T13:44:58Z</time>
      </trkpt>
      <trkpt lat="42.21785" lon="8.80954">
        <ele>1066.24</ele>
        <time>2026-05-03T13:45:08Z</time>
      </trkpt>
      <trkpt lat="42.21785" lon="8.80947">
        <ele>1066.24</ele>
        <time>2026-05-03T13:45:21Z</time>
      </trkpt>
      <trkpt lat="42.21785" lon="8.80944">
        <ele>1067.68</ele>
        <time>2026-05-03T13:45:32Z</time>
      </trkpt>
      <trkpt lat="42.21789" lon="8.80941">
        <ele>1068.64</ele>
        <time>2026-05-03T13:45:49Z</time>
      </trkpt>
      <trkpt lat="42.21789" lon="8.80932">
        <ele>1069.12</ele>
        <time>2026-05-03T13:46:01Z</time>
      </trkpt>
      <trkpt lat="42.2179" lon="8.80926">
        <ele>1070.08</ele>
        <time>2026-05-03T13:46:12Z</time>
      </trkpt>
      <trkpt lat="42.2179" lon="8.80923">
        <ele>1071.53</ele>
        <time>2026-05-03T13:46:35Z</time>
      </trkpt>
      <trkpt lat="42.21791" lon="8.80919">
        <ele>1070.57</ele>
        <time>2026-05-03T13:46:49Z</time>
      </trkpt>
      <trkpt lat="42.21792" lon="8.80915">
        <ele>1072.49</ele>
        <time>2026-05-03T13:47:01Z</time>
      </trkpt>
      <trkpt lat="42.21793" lon="8.80912">
        <ele>1074.89</ele>
        <time>2026-05-03T13:47:18Z</time>
      </trkpt>
      <trkpt lat="42.21798" lon="8.80905">
        <ele>1076.33</ele>
        <time>2026-05-03T13:47:30Z</time>
      </trkpt>
      <trkpt lat="42.21804" lon="8.80902">
        <ele>1076.33</ele>
        <time>2026-05-03T13:47:41Z</time>
      </trkpt>
      <trkpt lat="42.21805" lon="8.80901">
        <ele>1076.33</ele>
        <time>2026-05-03T13:47:42Z</time>
      </trkpt>
      <trkpt lat="42.2181" lon="8.80896">
        <ele>1077.78</ele>
        <time>2026-05-03T13:47:52Z</time>
      </trkpt>
      <trkpt lat="42.21811" lon="8.80901">
        <ele>1078.26</ele>
        <time>2026-05-03T13:48:15Z</time>
      </trkpt>
      <trkpt lat="42.21812" lon="8.80905">
        <ele>1078.26</ele>
        <time>2026-05-03T13:48:59Z</time>
      </trkpt>
      <trkpt lat="42.2181" lon="8.80898">
        <ele>1078.26</ele>
        <time>2026-05-03T13:49:19Z</time>
      </trkpt>
      <trkpt lat="42.21809" lon="8.80898">
        <ele>1074.89</ele>
        <time>2026-05-03T13:49:53Z</time>
      </trkpt>
      <trkpt lat="42.21808" lon="8.80895">
        <ele>1075.37</ele>
        <time>2026-05-03T13:50:03Z</time>
      </trkpt>
      <trkpt lat="42.21808" lon="8.80894">
        <ele>1075.37</ele>
        <time>2026-05-03T13:50:04Z</time>
      </trkpt>
      <trkpt lat="42.21803" lon="8.80885">
        <ele>1076.81</ele>
        <time>2026-05-03T13:50:15Z</time>
      </trkpt>
      <trkpt lat="42.21797" lon="8.8088">
        <ele>1079.22</ele>
        <time>2026-05-03T13:50:26Z</time>
      </trkpt>
      <trkpt lat="42.21794" lon="8.80875">
        <ele>1080.18</ele>
        <time>2026-05-03T13:50:34Z</time>
      </trkpt>
      <trkpt lat="42.21791" lon="8.80874">
        <ele>1080.18</ele>
        <time>2026-05-03T13:50:46Z</time>
      </trkpt>
      <trkpt lat="42.21788" lon="8.80881">
        <ele>1079.7</ele>
        <time>2026-05-03T13:51:04Z</time>
      </trkpt>
      <trkpt lat="42.21789" lon="8.80884">
        <ele>1080.66</ele>
        <time>2026-05-03T13:51:21Z</time>
      </trkpt>
      <trkpt lat="42.2179" lon="8.80883">
        <ele>1081.62</ele>
        <time>2026-05-03T13:52:06Z</time>
      </trkpt>
      <trkpt lat="42.21788" lon="8.80881">
        <ele>1078.74</ele>
        <time>2026-05-03T13:52:49Z</time>
      </trkpt>
      <trkpt lat="42.21789" lon="8.80885">
        <ele>1080.18</ele>
        <time>2026-05-03T13:53:14Z</time>
      </trkpt>
      <trkpt lat="42.21789" lon="8.80879">
        <ele>1080.18</ele>
        <time>2026-05-03T13:53:37Z</time>
      </trkpt>
      <trkpt lat="42.21791" lon="8.80874">
        <ele>1079.7</ele>
        <time>2026-05-03T13:53:51Z</time>
      </trkpt>
      <trkpt lat="42.21793" lon="8.80871">
        <ele>1080.18</ele>
        <time>2026-05-03T13:53:56Z</time>
      </trkpt>
      <trkpt lat="42.21794" lon="8.80867">
        <ele>1080.18</ele>
        <time>2026-05-03T13:54:01Z</time>
      </trkpt>
      <trkpt lat="42.21795" lon="8.80856">
        <ele>1081.62</ele>
        <time>2026-05-03T13:54:12Z</time>
      </trkpt>
      <trkpt lat="42.21796" lon="8.80856">
        <ele>1082.58</ele>
        <time>2026-05-03T13:54:27Z</time>
      </trkpt>
      <trkpt lat="42.218" lon="8.80858">
        <ele>1083.06</ele>
        <time>2026-05-03T13:54:39Z</time>
      </trkpt>
      <trkpt lat="42.21799" lon="8.80857">
        <ele>1083.06</ele>
        <time>2026-05-03T13:55:05Z</time>
      </trkpt>
      <trkpt lat="42.218" lon="8.80856">
        <ele>1083.06</ele>
        <time>2026-05-03T13:55:09Z</time>
      </trkpt>
      <trkpt lat="42.21799" lon="8.80853">
        <ele>1083.54</ele>
        <time>2026-05-03T13:55:13Z</time>
      </trkpt>
      <trkpt lat="42.21796" lon="8.80853">
        <ele>1084.02</ele>
        <time>2026-05-03T13:55:26Z</time>
      </trkpt>
      <trkpt lat="42.21796" lon="8.80854">
        <ele>1084.5</ele>
        <time>2026-05-03T13:55:43Z</time>
      </trkpt>
      <trkpt lat="42.21795" lon="8.80854">
        <ele>1083.06</ele>
        <time>2026-05-03T13:56:10Z</time>
      </trkpt>
      <trkpt lat="42.21797" lon="8.80857">
        <ele>1083.54</ele>
        <time>2026-05-03T13:56:33Z</time>
      </trkpt>
      <trkpt lat="42.21798" lon="8.80856">
        <ele>1084.99</ele>
        <time>2026-05-03T13:57:17Z</time>
      </trkpt>
      <trkpt lat="42.21794" lon="8.80852">
        <ele>1085.47</ele>
        <time>2026-05-03T13:57:34Z</time>
      </trkpt>
      <trkpt lat="42.21791" lon="8.80844">
        <ele>1085.95</ele>
        <time>2026-05-03T13:57:44Z</time>
      </trkpt>
      <trkpt lat="42.21788" lon="8.80834">
        <ele>1085.47</ele>
        <time>2026-05-03T13:57:54Z</time>
      </trkpt>
      <trkpt lat="42.21784" lon="8.80826">
        <ele>1086.91</ele>
        <time>2026-05-03T13:58:05Z</time>
      </trkpt>
      <trkpt lat="42.21782" lon="8.8082">
        <ele>1087.39</ele>
        <time>2026-05-03T13:58:12Z</time>
      </trkpt>
      <trkpt lat="42.21778" lon="8.80814">
        <ele>1087.39</ele>
        <time>2026-05-03T13:58:22Z</time>
      </trkpt>
      <trkpt lat="42.21777" lon="8.80806">
        <ele>1087.39</ele>
        <time>2026-05-03T13:58:32Z</time>
      </trkpt>
      <trkpt lat="42.21775" lon="8.80806">
        <ele>1087.39</ele>
        <time>2026-05-03T13:58:36Z</time>
      </trkpt>
      <trkpt lat="42.21771" lon="8.808">
        <ele>1087.87</ele>
        <time>2026-05-03T13:58:45Z</time>
      </trkpt>
      <trkpt lat="42.21768" lon="8.80792">
        <ele>1088.83</ele>
        <time>2026-05-03T13:58:54Z</time>
      </trkpt>
      <trkpt lat="42.21766" lon="8.80784">
        <ele>1089.31</ele>
        <time>2026-05-03T13:59:03Z</time>
      </trkpt>
      <trkpt lat="42.21762" lon="8.80778">
        <ele>1089.31</ele>
        <time>2026-05-03T13:59:10Z</time>
      </trkpt>
      <trkpt lat="42.2176" lon="8.80766">
        <ele>1089.79</ele>
        <time>2026-05-03T13:59:21Z</time>
      </trkpt>
      <trkpt lat="42.21759" lon="8.80764">
        <ele>1089.79</ele>
        <time>2026-05-03T13:59:23Z</time>
      </trkpt>
      <trkpt lat="42.21756" lon="8.80752">
        <ele>1089.79</ele>
        <time>2026-05-03T13:59:33Z</time>
      </trkpt>
      <trkpt lat="42.21754" lon="8.80742">
        <ele>1090.75</ele>
        <time>2026-05-03T13:59:43Z</time>
      </trkpt>
      <trkpt lat="42.21752" lon="8.80734">
        <ele>1091.23</ele>
        <time>2026-05-03T13:59:52Z</time>
      </trkpt>
      <trkpt lat="42.21749" lon="8.80725">
        <ele>1090.75</ele>
        <time>2026-05-03T14:00:02Z</time>
      </trkpt>
      <trkpt lat="42.21747" lon="8.80716">
        <ele>1090.75</ele>
        <time>2026-05-03T14:00:10Z</time>
      </trkpt>
      <trkpt lat="42.21746" lon="8.80704">
        <ele>1090.27</ele>
        <time>2026-05-03T14:00:21Z</time>
      </trkpt>
      <trkpt lat="42.21746" lon="8.80702">
        <ele>1090.27</ele>
        <time>2026-05-03T14:00:23Z</time>
      </trkpt>
      <trkpt lat="42.21745" lon="8.80699">
        <ele>1090.27</ele>
        <time>2026-05-03T14:00:26Z</time>
      </trkpt>
      <trkpt lat="42.21746" lon="8.8069">
        <ele>1089.79</ele>
        <time>2026-05-03T14:00:39Z</time>
      </trkpt>
      <trkpt lat="42.21745" lon="8.80688">
        <ele>1090.27</ele>
        <time>2026-05-03T14:00:41Z</time>
      </trkpt>
      <trkpt lat="42.21743" lon="8.80677">
        <ele>1090.27</ele>
        <time>2026-05-03T14:00:51Z</time>
      </trkpt>
      <trkpt lat="42.21742" lon="8.80669">
        <ele>1090.27</ele>
        <time>2026-05-03T14:00:58Z</time>
      </trkpt>
      <trkpt lat="42.21738" lon="8.80659">
        <ele>1090.27</ele>
        <time>2026-05-03T14:01:09Z</time>
      </trkpt>
      <trkpt lat="42.21737" lon="8.80658">
        <ele>1090.27</ele>
        <time>2026-05-03T14:01:15Z</time>
      </trkpt>
      <trkpt lat="42.21732" lon="8.8065">
        <ele>1090.75</ele>
        <time>2026-05-03T14:01:24Z</time>
      </trkpt>
      <trkpt lat="42.21725" lon="8.80642">
        <ele>1091.23</ele>
        <time>2026-05-03T14:01:34Z</time>
      </trkpt>
      <trkpt lat="42.21718" lon="8.80636">
        <ele>1091.23</ele>
        <time>2026-05-03T14:01:44Z</time>
      </trkpt>
      <trkpt lat="42.21713" lon="8.80631">
        <ele>1091.71</ele>
        <time>2026-05-03T14:01:54Z</time>
      </trkpt>
      <trkpt lat="42.21709" lon="8.80624">
        <ele>1093.16</ele>
        <time>2026-05-03T14:02:02Z</time>
      </trkpt>
      <trkpt lat="42.21705" lon="8.80616">
        <ele>1094.12</ele>
        <time>2026-05-03T14:02:11Z</time>
      </trkpt>
      <trkpt lat="42.21706" lon="8.80611">
        <ele>1095.08</ele>
        <time>2026-05-03T14:02:15Z</time>
      </trkpt>
      <trkpt lat="42.21704" lon="8.80608">
        <ele>1095.08</ele>
        <time>2026-05-03T14:02:19Z</time>
      </trkpt>
      <trkpt lat="42.21704" lon="8.80602">
        <ele>1096.52</ele>
        <time>2026-05-03T14:02:26Z</time>
      </trkpt>
      <trkpt lat="42.217" lon="8.80594">
        <ele>1096.04</ele>
        <time>2026-05-03T14:02:35Z</time>
      </trkpt>
      <trkpt lat="42.21698" lon="8.80594">
        <ele>1096.04</ele>
        <time>2026-05-03T14:02:38Z</time>
      </trkpt>
      <trkpt lat="42.21694" lon="8.80592">
        <ele>1096.04</ele>
        <time>2026-05-03T14:02:51Z</time>
      </trkpt>
      <trkpt lat="42.21692" lon="8.80591">
        <ele>1096.04</ele>
        <time>2026-05-03T14:03:07Z</time>
      </trkpt>
      <trkpt lat="42.21695" lon="8.80585">
        <ele>1096.04</ele>
        <time>2026-05-03T14:03:16Z</time>
      </trkpt>
      <trkpt lat="42.21695" lon="8.80583">
        <ele>1096.04</ele>
        <time>2026-05-03T14:03:18Z</time>
      </trkpt>
      <trkpt lat="42.2169" lon="8.80577">
        <ele>1096.52</ele>
        <time>2026-05-03T14:03:28Z</time>
      </trkpt>
      <trkpt lat="42.2169" lon="8.80573">
        <ele>1096.04</ele>
        <time>2026-05-03T14:03:31Z</time>
      </trkpt>
      <trkpt lat="42.21686" lon="8.80565">
        <ele>1096.04</ele>
        <time>2026-05-03T14:03:41Z</time>
      </trkpt>
      <trkpt lat="42.21686" lon="8.80564">
        <ele>1096.52</ele>
        <time>2026-05-03T14:03:42Z</time>
      </trkpt>
      <trkpt lat="42.2168" lon="8.80562">
        <ele>1097.48</ele>
        <time>2026-05-03T14:03:51Z</time>
      </trkpt>
      <trkpt lat="42.2168" lon="8.80562">
        <ele>1097.48</ele>
        <time>2026-05-03T14:03:52Z</time>
      </trkpt>
      <trkpt lat="42.21676" lon="8.80564">
        <ele>1097.48</ele>
        <time>2026-05-03T14:03:59Z</time>
      </trkpt>
      <trkpt lat="42.21673" lon="8.8056">
        <ele>1097.96</ele>
        <time>2026-05-03T14:04:10Z</time>
      </trkpt>
      <trkpt lat="42.21673" lon="8.80559">
        <ele>1097.96</ele>
        <time>2026-05-03T14:04:14Z</time>
      </trkpt>
      <trkpt lat="42.21671" lon="8.80549">
        <ele>1097.48</ele>
        <time>2026-05-03T14:04:25Z</time>
      </trkpt>
      <trkpt lat="42.21665" lon="8.8054">
        <ele>1097.48</ele>
        <time>2026-05-03T14:04:35Z</time>
      </trkpt>
      <trkpt lat="42.21663" lon="8.80537">
        <ele>1097</ele>
        <time>2026-05-03T14:04:39Z</time>
      </trkpt>
      <trkpt lat="42.2166" lon="8.80526">
        <ele>1096.04</ele>
        <time>2026-05-03T14:04:49Z</time>
      </trkpt>
      <trkpt lat="42.2166" lon="8.80513">
        <ele>1095.56</ele>
        <time>2026-05-03T14:05:00Z</time>
      </trkpt>
      <trkpt lat="42.21655" lon="8.80506">
        <ele>1095.56</ele>
        <time>2026-05-03T14:05:09Z</time>
      </trkpt>
      <trkpt lat="42.21654" lon="8.80496">
        <ele>1095.08</ele>
        <time>2026-05-03T14:05:19Z</time>
      </trkpt>
      <trkpt lat="42.21653" lon="8.8049">
        <ele>1094.6</ele>
        <time>2026-05-03T14:05:28Z</time>
      </trkpt>
      <trkpt lat="42.21652" lon="8.80491">
        <ele>1095.08</ele>
        <time>2026-05-03T14:05:46Z</time>
      </trkpt>
      <trkpt lat="42.21651" lon="8.80491">
        <ele>1096.04</ele>
        <time>2026-05-03T14:06:13Z</time>
      </trkpt>
      <trkpt lat="42.21653" lon="8.80486">
        <ele>1096.04</ele>
        <time>2026-05-03T14:06:20Z</time>
      </trkpt>
      <trkpt lat="42.21653" lon="8.80481">
        <ele>1095.08</ele>
        <time>2026-05-03T14:06:33Z</time>
      </trkpt>
      <trkpt lat="42.21656" lon="8.80477">
        <ele>1094.6</ele>
        <time>2026-05-03T14:06:53Z</time>
      </trkpt>
      <trkpt lat="42.2166" lon="8.80471">
        <ele>1094.6</ele>
        <time>2026-05-03T14:07:06Z</time>
      </trkpt>
      <trkpt lat="42.21662" lon="8.80464">
        <ele>1093.16</ele>
        <time>2026-05-03T14:07:21Z</time>
      </trkpt>
      <trkpt lat="42.2166" lon="8.80472">
        <ele>1093.16</ele>
        <time>2026-05-03T14:07:35Z</time>
      </trkpt>
      <trkpt lat="42.21655" lon="8.80476">
        <ele>1092.2</ele>
        <time>2026-05-03T14:07:48Z</time>
      </trkpt>
      <trkpt lat="42.21649" lon="8.80474">
        <ele>1092.68</ele>
        <time>2026-05-03T14:08:01Z</time>
      </trkpt>
      <trkpt lat="42.21648" lon="8.80471">
        <ele>1092.68</ele>
        <time>2026-05-03T14:08:04Z</time>
      </trkpt>
      <trkpt lat="42.21645" lon="8.8046">
        <ele>1092.2</ele>
        <time>2026-05-03T14:08:16Z</time>
      </trkpt>
      <trkpt lat="42.21639" lon="8.80449">
        <ele>1091.71</ele>
        <time>2026-05-03T14:08:29Z</time>
      </trkpt>
      <trkpt lat="42.21634" lon="8.80435">
        <ele>1091.71</ele>
        <time>2026-05-03T14:08:41Z</time>
      </trkpt>
      <trkpt lat="42.21633" lon="8.80431">
        <ele>1091.71</ele>
        <time>2026-05-03T14:08:48Z</time>
      </trkpt>
      <trkpt lat="42.21631" lon="8.80416">
        <ele>1090.75</ele>
        <time>2026-05-03T14:09:02Z</time>
      </trkpt>
      <trkpt lat="42.21627" lon="8.80405">
        <ele>1091.23</ele>
        <time>2026-05-03T14:09:14Z</time>
      </trkpt>
      <trkpt lat="42.21625" lon="8.80394">
        <ele>1091.23</ele>
        <time>2026-05-03T14:09:23Z</time>
      </trkpt>
      <trkpt lat="42.21619" lon="8.80385">
        <ele>1092.68</ele>
        <time>2026-05-03T14:09:34Z</time>
      </trkpt>
      <trkpt lat="42.21616" lon="8.80376">
        <ele>1093.64</ele>
        <time>2026-05-03T14:09:47Z</time>
      </trkpt>
      <trkpt lat="42.21612" lon="8.8037">
        <ele>1093.64</ele>
        <time>2026-05-03T14:09:59Z</time>
      </trkpt>
      <trkpt lat="42.21609" lon="8.80364">
        <ele>1092.68</ele>
        <time>2026-05-03T14:10:11Z</time>
      </trkpt>
      <trkpt lat="42.21606" lon="8.80362">
        <ele>1091.71</ele>
        <time>2026-05-03T14:10:18Z</time>
      </trkpt>
      <trkpt lat="42.21601" lon="8.80355">
        <ele>1091.23</ele>
        <time>2026-05-03T14:10:29Z</time>
      </trkpt>
      <trkpt lat="42.21601" lon="8.80354">
        <ele>1090.27</ele>
        <time>2026-05-03T14:10:44Z</time>
      </trkpt>
      <trkpt lat="42.21609" lon="8.80365">
        <ele>1090.75</ele>
        <time>2026-05-03T14:10:57Z</time>
      </trkpt>
      <trkpt lat="42.21615" lon="8.80363">
        <ele>1090.75</ele>
        <time>2026-05-03T14:11:07Z</time>
      </trkpt>
      <trkpt lat="42.2162" lon="8.80362">
        <ele>1091.23</ele>
        <time>2026-05-03T14:11:18Z</time>
      </trkpt>
      <trkpt lat="42.21624" lon="8.80362">
        <ele>1093.16</ele>
        <time>2026-05-03T14:11:30Z</time>
      </trkpt>
      <trkpt lat="42.21622" lon="8.8036">
        <ele>1092.68</ele>
        <time>2026-05-03T14:12:06Z</time>
      </trkpt>
      <trkpt lat="42.21622" lon="8.80359">
        <ele>1094.12</ele>
        <time>2026-05-03T14:12:43Z</time>
      </trkpt>
      <trkpt lat="42.21622" lon="8.8036">
        <ele>1093.16</ele>
        <time>2026-05-03T14:13:12Z</time>
      </trkpt>
      <trkpt lat="42.21624" lon="8.80362">
        <ele>1091.23</ele>
        <time>2026-05-03T14:13:41Z</time>
      </trkpt>
      <trkpt lat="42.2162" lon="8.80361">
        <ele>1092.2</ele>
        <time>2026-05-03T14:14:00Z</time>
      </trkpt>
      <trkpt lat="42.21612" lon="8.80361">
        <ele>1093.64</ele>
        <time>2026-05-03T14:14:12Z</time>
      </trkpt>
      <trkpt lat="42.21608" lon="8.80364">
        <ele>1093.64</ele>
        <time>2026-05-03T14:14:24Z</time>
      </trkpt>
      <trkpt lat="42.21606" lon="8.80362">
        <ele>1093.16</ele>
        <time>2026-05-03T14:14:32Z</time>
      </trkpt>
      <trkpt lat="42.21604" lon="8.8036">
        <ele>1093.64</ele>
        <time>2026-05-03T14:14:41Z</time>
      </trkpt>
      <trkpt lat="42.2161" lon="8.80367">
        <ele>1093.64</ele>
        <time>2026-05-03T14:14:50Z</time>
      </trkpt>
      <trkpt lat="42.21617" lon="8.80379">
        <ele>1095.56</ele>
        <time>2026-05-03T14:15:04Z</time>
      </trkpt>
      <trkpt lat="42.2162" lon="8.80387">
        <ele>1096.04</ele>
        <time>2026-05-03T14:15:16Z</time>
      </trkpt>
      <trkpt lat="42.21625" lon="8.80397">
        <ele>1095.56</ele>
        <time>2026-05-03T14:15:29Z</time>
      </trkpt>
      <trkpt lat="42.21628" lon="8.80409">
        <ele>1094.6</ele>
        <time>2026-05-03T14:15:41Z</time>
      </trkpt>
      <trkpt lat="42.21631" lon="8.80419">
        <ele>1095.08</ele>
        <time>2026-05-03T14:15:53Z</time>
      </trkpt>
      <trkpt lat="42.21631" lon="8.80426">
        <ele>1094.6</ele>
        <time>2026-05-03T14:16:09Z</time>
      </trkpt>
      <trkpt lat="42.21634" lon="8.80441">
        <ele>1092.68</ele>
        <time>2026-05-03T14:16:22Z</time>
      </trkpt>
      <trkpt lat="42.21641" lon="8.80454">
        <ele>1092.2</ele>
        <time>2026-05-03T14:16:35Z</time>
      </trkpt>
      <trkpt lat="42.21647" lon="8.80461">
        <ele>1093.16</ele>
        <time>2026-05-03T14:16:47Z</time>
      </trkpt>
      <trkpt lat="42.21649" lon="8.80472">
        <ele>1094.12</ele>
        <time>2026-05-03T14:17:00Z</time>
      </trkpt>
      <trkpt lat="42.21652" lon="8.80485">
        <ele>1095.08</ele>
        <time>2026-05-03T14:17:13Z</time>
      </trkpt>
      <trkpt lat="42.21654" lon="8.80498">
        <ele>1095.56</ele>
        <time>2026-05-03T14:17:25Z</time>
      </trkpt>
      <trkpt lat="42.21654" lon="8.805">
        <ele>1095.56</ele>
        <time>2026-05-03T14:17:45Z</time>
      </trkpt>
      <trkpt lat="42.21654" lon="8.80505">
        <ele>1096.04</ele>
        <time>2026-05-03T14:18:00Z</time>
      </trkpt>
      <trkpt lat="42.21656" lon="8.8051">
        <ele>1096.52</ele>
        <time>2026-05-03T14:18:13Z</time>
      </trkpt>
      <trkpt lat="42.21658" lon="8.80512">
        <ele>1096.52</ele>
        <time>2026-05-03T14:18:16Z</time>
      </trkpt>
      <trkpt lat="42.21659" lon="8.80518">
        <ele>1097</ele>
        <time>2026-05-03T14:18:22Z</time>
      </trkpt>
      <trkpt lat="42.21661" lon="8.80533">
        <ele>1097.96</ele>
        <time>2026-05-03T14:18:35Z</time>
      </trkpt>
      <trkpt lat="42.21664" lon="8.8054">
        <ele>1097.48</ele>
        <time>2026-05-03T14:18:42Z</time>
      </trkpt>
      <trkpt lat="42.21671" lon="8.80553">
        <ele>1097.48</ele>
        <time>2026-05-03T14:18:55Z</time>
      </trkpt>
      <trkpt lat="42.21675" lon="8.80565">
        <ele>1096.04</ele>
        <time>2026-05-03T14:19:07Z</time>
      </trkpt>
      <trkpt lat="42.21678" lon="8.8057">
        <ele>1095.08</ele>
        <time>2026-05-03T14:19:19Z</time>
      </trkpt>
      <trkpt lat="42.21678" lon="8.80573">
        <ele>1095.56</ele>
        <time>2026-05-03T14:19:52Z</time>
      </trkpt>
      <trkpt lat="42.21682" lon="8.80578">
        <ele>1094.6</ele>
        <time>2026-05-03T14:20:04Z</time>
      </trkpt>
      <trkpt lat="42.21691" lon="8.80577">
        <ele>1094.12</ele>
        <time>2026-05-03T14:20:16Z</time>
      </trkpt>
      <trkpt lat="42.21695" lon="8.80583">
        <ele>1093.64</ele>
        <time>2026-05-03T14:20:28Z</time>
      </trkpt>
      <trkpt lat="42.217" lon="8.80589">
        <ele>1093.64</ele>
        <time>2026-05-03T14:20:41Z</time>
      </trkpt>
      <trkpt lat="42.21702" lon="8.80601">
        <ele>1093.16</ele>
        <time>2026-05-03T14:20:55Z</time>
      </trkpt>
      <trkpt lat="42.21705" lon="8.80612">
        <ele>1091.23</ele>
        <time>2026-05-03T14:21:07Z</time>
      </trkpt>
      <trkpt lat="42.21707" lon="8.80621">
        <ele>1088.83</ele>
        <time>2026-05-03T14:21:19Z</time>
      </trkpt>
      <trkpt lat="42.21713" lon="8.80631">
        <ele>1086.91</ele>
        <time>2026-05-03T14:21:33Z</time>
      </trkpt>
      <trkpt lat="42.2172" lon="8.80642">
        <ele>1087.87</ele>
        <time>2026-05-03T14:21:45Z</time>
      </trkpt>
      <trkpt lat="42.21728" lon="8.80651">
        <ele>1087.87</ele>
        <time>2026-05-03T14:21:57Z</time>
      </trkpt>
      <trkpt lat="42.21736" lon="8.80661">
        <ele>1087.87</ele>
        <time>2026-05-03T14:22:10Z</time>
      </trkpt>
      <trkpt lat="42.21741" lon="8.80675">
        <ele>1087.87</ele>
        <time>2026-05-03T14:22:22Z</time>
      </trkpt>
      <trkpt lat="42.21741" lon="8.80677">
        <ele>1088.35</ele>
        <time>2026-05-03T14:22:24Z</time>
      </trkpt>
      <trkpt lat="42.21743" lon="8.80689">
        <ele>1089.79</ele>
        <time>2026-05-03T14:22:35Z</time>
      </trkpt>
      <trkpt lat="42.21744" lon="8.80698">
        <ele>1089.79</ele>
        <time>2026-05-03T14:22:48Z</time>
      </trkpt>
      <trkpt lat="42.21747" lon="8.80712">
        <ele>1087.87</ele>
        <time>2026-05-03T14:23:01Z</time>
      </trkpt>
      <trkpt lat="42.21749" lon="8.80728">
        <ele>1087.87</ele>
        <time>2026-05-03T14:23:15Z</time>
      </trkpt>
      <trkpt lat="42.21749" lon="8.80728">
        <ele>1087.87</ele>
        <time>2026-05-03T14:23:16Z</time>
      </trkpt>
      <trkpt lat="42.21753" lon="8.80739">
        <ele>1086.43</ele>
        <time>2026-05-03T14:23:28Z</time>
      </trkpt>
      <trkpt lat="42.21755" lon="8.80749">
        <ele>1084.5</ele>
        <time>2026-05-03T14:23:40Z</time>
      </trkpt>
      <trkpt lat="42.21757" lon="8.80762">
        <ele>1083.54</ele>
        <time>2026-05-03T14:23:55Z</time>
      </trkpt>
      <trkpt lat="42.2176" lon="8.80772">
        <ele>1084.5</ele>
        <time>2026-05-03T14:24:09Z</time>
      </trkpt>
      <trkpt lat="42.21763" lon="8.80782">
        <ele>1083.54</ele>
        <time>2026-05-03T14:24:19Z</time>
      </trkpt>
      <trkpt lat="42.21768" lon="8.80795">
        <ele>1084.02</ele>
        <time>2026-05-03T14:24:32Z</time>
      </trkpt>
      <trkpt lat="42.21774" lon="8.80808">
        <ele>1083.06</ele>
        <time>2026-05-03T14:24:47Z</time>
      </trkpt>
      <trkpt lat="42.21778" lon="8.80818">
        <ele>1081.14</ele>
        <time>2026-05-03T14:25:01Z</time>
      </trkpt>
      <trkpt lat="42.21782" lon="8.80825">
        <ele>1081.62</ele>
        <time>2026-05-03T14:25:18Z</time>
      </trkpt>
      <trkpt lat="42.21785" lon="8.80833">
        <ele>1082.1</ele>
        <time>2026-05-03T14:25:32Z</time>
      </trkpt>
      <trkpt lat="42.21789" lon="8.80845">
        <ele>1080.66</ele>
        <time>2026-05-03T14:25:47Z</time>
      </trkpt>
      <trkpt lat="42.21792" lon="8.80853">
        <ele>1081.14</ele>
        <time>2026-05-03T14:25:59Z</time>
      </trkpt>
      <trkpt lat="42.21793" lon="8.80861">
        <ele>1080.18</ele>
        <time>2026-05-03T14:26:12Z</time>
      </trkpt>
      <trkpt lat="42.21794" lon="8.80872">
        <ele>1079.22</ele>
        <time>2026-05-03T14:26:24Z</time>
      </trkpt>
      <trkpt lat="42.21795" lon="8.80877">
        <ele>1079.22</ele>
        <time>2026-05-03T14:26:29Z</time>
      </trkpt>
      <trkpt lat="42.21799" lon="8.80886">
        <ele>1078.74</ele>
        <time>2026-05-03T14:26:41Z</time>
      </trkpt>
      <trkpt lat="42.21804" lon="8.80893">
        <ele>1077.78</ele>
        <time>2026-05-03T14:26:53Z</time>
      </trkpt>
      <trkpt lat="42.21806" lon="8.80896">
        <ele>1078.26</ele>
        <time>2026-05-03T14:27:15Z</time>
      </trkpt>
      <trkpt lat="42.21809" lon="8.80902">
        <ele>1077.29</ele>
        <time>2026-05-03T14:27:29Z</time>
      </trkpt>
      <trkpt lat="42.21805" lon="8.809">
        <ele>1078.74</ele>
        <time>2026-05-03T14:27:43Z</time>
      </trkpt>
      <trkpt lat="42.21803" lon="8.80901">
        <ele>1079.22</ele>
        <time>2026-05-03T14:28:11Z</time>
      </trkpt>
      <trkpt lat="42.21803" lon="8.80904">
        <ele>1081.14</ele>
        <time>2026-05-03T14:28:45Z</time>
      </trkpt>
      <trkpt lat="42.21803" lon="8.80903">
        <ele>1081.62</ele>
        <time>2026-05-03T14:29:25Z</time>
      </trkpt>
      <trkpt lat="42.21799" lon="8.80904">
        <ele>1081.14</ele>
        <time>2026-05-03T14:29:56Z</time>
      </trkpt>
      <trkpt lat="42.21794" lon="8.8091">
        <ele>1079.7</ele>
        <time>2026-05-03T14:30:09Z</time>
      </trkpt>
      <trkpt lat="42.21792" lon="8.80914">
        <ele>1079.7</ele>
        <time>2026-05-03T14:30:27Z</time>
      </trkpt>
      <trkpt lat="42.21791" lon="8.80915">
        <ele>1078.74</ele>
        <time>2026-05-03T14:30:48Z</time>
      </trkpt>
      <trkpt lat="42.21791" lon="8.80922">
        <ele>1076.33</ele>
        <time>2026-05-03T14:31:03Z</time>
      </trkpt>
      <trkpt lat="42.21791" lon="8.80923">
        <ele>1074.41</ele>
        <time>2026-05-03T14:31:18Z</time>
      </trkpt>
      <trkpt lat="42.2179" lon="8.80928">
        <ele>1072.97</ele>
        <time>2026-05-03T14:31:35Z</time>
      </trkpt>
      <trkpt lat="42.21788" lon="8.80938">
        <ele>1072.49</ele>
        <time>2026-05-03T14:31:48Z</time>
      </trkpt>
      <trkpt lat="42.21786" lon="8.80943">
        <ele>1071.05</ele>
        <time>2026-05-03T14:32:01Z</time>
      </trkpt>
      <trkpt lat="42.21784" lon="8.80947">
        <ele>1070.08</ele>
        <time>2026-05-03T14:32:16Z</time>
      </trkpt>
      <trkpt lat="42.21783" lon="8.80954">
        <ele>1070.08</ele>
        <time>2026-05-03T14:32:28Z</time>
      </trkpt>
      <trkpt lat="42.21781" lon="8.80958">
        <ele>1070.08</ele>
        <time>2026-05-03T14:32:40Z</time>
      </trkpt>
      <trkpt lat="42.2178" lon="8.80967">
        <ele>1069.6</ele>
        <time>2026-05-03T14:32:54Z</time>
      </trkpt>
      <trkpt lat="42.21777" lon="8.80973">
        <ele>1069.6</ele>
        <time>2026-05-03T14:33:06Z</time>
      </trkpt>
      <trkpt lat="42.21776" lon="8.80978">
        <ele>1070.08</ele>
        <time>2026-05-03T14:33:12Z</time>
      </trkpt>
      <trkpt lat="42.21774" lon="8.80983">
        <ele>1070.08</ele>
        <time>2026-05-03T14:33:23Z</time>
      </trkpt>
      <trkpt lat="42.21771" lon="8.80985">
        <ele>1068.16</ele>
        <time>2026-05-03T14:33:45Z</time>
      </trkpt>
      <trkpt lat="42.21766" lon="8.80986">
        <ele>1065.28</ele>
        <time>2026-05-03T14:33:56Z</time>
      </trkpt>
      <trkpt lat="42.21764" lon="8.80989">
        <ele>1064.8</ele>
        <time>2026-05-03T14:34:03Z</time>
      </trkpt>
      <trkpt lat="42.2176" lon="8.80997">
        <ele>1064.8</ele>
        <time>2026-05-03T14:34:14Z</time>
      </trkpt>
      <trkpt lat="42.2176" lon="8.81002">
        <ele>1065.76</ele>
        <time>2026-05-03T14:34:25Z</time>
      </trkpt>
      <trkpt lat="42.21758" lon="8.81005">
        <ele>1067.2</ele>
        <time>2026-05-03T14:34:40Z</time>
      </trkpt>
      <trkpt lat="42.21757" lon="8.81006">
        <ele>1063.36</ele>
        <time>2026-05-03T14:34:57Z</time>
      </trkpt>
      <trkpt lat="42.21756" lon="8.81006">
        <ele>1063.84</ele>
        <time>2026-05-03T14:35:11Z</time>
      </trkpt>
      <trkpt lat="42.21755" lon="8.8101">
        <ele>1064.32</ele>
        <time>2026-05-03T14:35:22Z</time>
      </trkpt>
      <trkpt lat="42.21755" lon="8.81016">
        <ele>1063.84</ele>
        <time>2026-05-03T14:35:31Z</time>
      </trkpt>
      <trkpt lat="42.21752" lon="8.81023">
        <ele>1064.8</ele>
        <time>2026-05-03T14:35:47Z</time>
      </trkpt>
      <trkpt lat="42.21755" lon="8.81028">
        <ele>1062.87</ele>
        <time>2026-05-03T14:36:01Z</time>
      </trkpt>
      <trkpt lat="42.21752" lon="8.81035">
        <ele>1061.43</ele>
        <time>2026-05-03T14:36:15Z</time>
      </trkpt>
      <trkpt lat="42.2175" lon="8.81044">
        <ele>1063.36</ele>
        <time>2026-05-03T14:36:27Z</time>
      </trkpt>
      <trkpt lat="42.21747" lon="8.81049">
        <ele>1064.32</ele>
        <time>2026-05-03T14:36:39Z</time>
      </trkpt>
      <trkpt lat="42.21745" lon="8.81052">
        <ele>1062.87</ele>
        <time>2026-05-03T14:36:53Z</time>
      </trkpt>
      <trkpt lat="42.21742" lon="8.81055">
        <ele>1062.39</ele>
        <time>2026-05-03T14:37:08Z</time>
      </trkpt>
      <trkpt lat="42.2174" lon="8.81059">
        <ele>1061.43</ele>
        <time>2026-05-03T14:37:21Z</time>
      </trkpt>
      <trkpt lat="42.21738" lon="8.81066">
        <ele>1062.87</ele>
        <time>2026-05-03T14:37:31Z</time>
      </trkpt>
      <trkpt lat="42.21737" lon="8.81071">
        <ele>1064.8</ele>
        <time>2026-05-03T14:37:43Z</time>
      </trkpt>
      <trkpt lat="42.21736" lon="8.81073">
        <ele>1066.24</ele>
        <time>2026-05-03T14:37:54Z</time>
      </trkpt>
      <trkpt lat="42.21734" lon="8.81075">
        <ele>1066.72</ele>
        <time>2026-05-03T14:38:13Z</time>
      </trkpt>
      <trkpt lat="42.21734" lon="8.81082">
        <ele>1066.24</ele>
        <time>2026-05-03T14:38:22Z</time>
      </trkpt>
      <trkpt lat="42.21734" lon="8.81087">
        <ele>1065.76</ele>
        <time>2026-05-03T14:38:33Z</time>
      </trkpt>
      <trkpt lat="42.21732" lon="8.81093">
        <ele>1063.36</ele>
        <time>2026-05-03T14:38:46Z</time>
      </trkpt>
      <trkpt lat="42.21729" lon="8.81102">
        <ele>1061.91</ele>
        <time>2026-05-03T14:39:01Z</time>
      </trkpt>
      <trkpt lat="42.21727" lon="8.81104">
        <ele>1059.51</ele>
        <time>2026-05-03T14:39:19Z</time>
      </trkpt>
      <trkpt lat="42.21727" lon="8.81113">
        <ele>1059.51</ele>
        <time>2026-05-03T14:39:34Z</time>
      </trkpt>
      <trkpt lat="42.21726" lon="8.81118">
        <ele>1059.03</ele>
        <time>2026-05-03T14:39:48Z</time>
      </trkpt>
      <trkpt lat="42.21726" lon="8.81117">
        <ele>1056.63</ele>
        <time>2026-05-03T14:40:11Z</time>
      </trkpt>
      <trkpt lat="42.21724" lon="8.81121">
        <ele>1056.15</ele>
        <time>2026-05-03T14:40:24Z</time>
      </trkpt>
      <trkpt lat="42.21723" lon="8.81128">
        <ele>1055.18</ele>
        <time>2026-05-03T14:40:36Z</time>
      </trkpt>
      <trkpt lat="42.21721" lon="8.81127">
        <ele>1055.67</ele>
        <time>2026-05-03T14:40:55Z</time>
      </trkpt>
      <trkpt lat="42.21721" lon="8.81128">
        <ele>1053.74</ele>
        <time>2026-05-03T14:41:16Z</time>
      </trkpt>
      <trkpt lat="42.2172" lon="8.81126">
        <ele>1055.67</ele>
        <time>2026-05-03T14:41:39Z</time>
      </trkpt>
      <trkpt lat="42.21721" lon="8.81132">
        <ele>1057.11</ele>
        <time>2026-05-03T14:41:56Z</time>
      </trkpt>
      <trkpt lat="42.21719" lon="8.81143">
        <ele>1055.67</ele>
        <time>2026-05-03T14:42:07Z</time>
      </trkpt>
      <trkpt lat="42.21715" lon="8.81146">
        <ele>1056.15</ele>
        <time>2026-05-03T14:42:18Z</time>
      </trkpt>
      <trkpt lat="42.21711" lon="8.81146">
        <ele>1055.67</ele>
        <time>2026-05-03T14:42:24Z</time>
      </trkpt>
      <trkpt lat="42.21705" lon="8.81152">
        <ele>1054.7</ele>
        <time>2026-05-03T14:42:36Z</time>
      </trkpt>
      <trkpt lat="42.21701" lon="8.81156">
        <ele>1056.15</ele>
        <time>2026-05-03T14:42:48Z</time>
      </trkpt>
      <trkpt lat="42.21698" lon="8.81162">
        <ele>1057.59</ele>
        <time>2026-05-03T14:43:02Z</time>
      </trkpt>
      <trkpt lat="42.21694" lon="8.81166">
        <ele>1058.07</ele>
        <time>2026-05-03T14:43:15Z</time>
      </trkpt>
      <trkpt lat="42.21689" lon="8.81169">
        <ele>1059.99</ele>
        <time>2026-05-03T14:43:27Z</time>
      </trkpt>
      <trkpt lat="42.21686" lon="8.8117">
        <ele>1060.47</ele>
        <time>2026-05-03T14:43:38Z</time>
      </trkpt>
      <trkpt lat="42.21687" lon="8.81174">
        <ele>1061.43</ele>
        <time>2026-05-03T14:43:52Z</time>
      </trkpt>
      <trkpt lat="42.21685" lon="8.81177">
        <ele>1061.43</ele>
        <time>2026-05-03T14:44:06Z</time>
      </trkpt>
      <trkpt lat="42.21683" lon="8.81182">
        <ele>1063.36</ele>
        <time>2026-05-03T14:44:18Z</time>
      </trkpt>
      <trkpt lat="42.21678" lon="8.81184">
        <ele>1062.39</ele>
        <time>2026-05-03T14:44:29Z</time>
      </trkpt>
      <trkpt lat="42.21679" lon="8.81185">
        <ele>1060.47</ele>
        <time>2026-05-03T14:44:53Z</time>
      </trkpt>
      <trkpt lat="42.21674" lon="8.8119">
        <ele>1058.55</ele>
        <time>2026-05-03T14:45:07Z</time>
      </trkpt>
      <trkpt lat="42.21666" lon="8.81196">
        <ele>1061.43</ele>
        <time>2026-05-03T14:45:20Z</time>
      </trkpt>
      <trkpt lat="42.2166" lon="8.812">
        <ele>1063.36</ele>
        <time>2026-05-03T14:45:31Z</time>
      </trkpt>
      <trkpt lat="42.21656" lon="8.81198">
        <ele>1064.32</ele>
        <time>2026-05-03T14:45:43Z</time>
      </trkpt>
      <trkpt lat="42.21649" lon="8.81197">
        <ele>1064.8</ele>
        <time>2026-05-03T14:45:55Z</time>
      </trkpt>
      <trkpt lat="42.21648" lon="8.81199">
        <ele>1062.87</ele>
        <time>2026-05-03T14:46:08Z</time>
      </trkpt>
      <trkpt lat="42.2164" lon="8.81197">
        <ele>1064.32</ele>
        <time>2026-05-03T14:46:20Z</time>
      </trkpt>
      <trkpt lat="42.21633" lon="8.81195">
        <ele>1063.84</ele>
        <time>2026-05-03T14:46:32Z</time>
      </trkpt>
      <trkpt lat="42.21631" lon="8.81205">
        <ele>1064.8</ele>
        <time>2026-05-03T14:46:44Z</time>
      </trkpt>
      <trkpt lat="42.21628" lon="8.81208">
        <ele>1064.8</ele>
        <time>2026-05-03T14:46:50Z</time>
      </trkpt>
      <trkpt lat="42.21626" lon="8.81217">
        <ele>1063.84</ele>
        <time>2026-05-03T14:47:00Z</time>
      </trkpt>
      <trkpt lat="42.21623" lon="8.81225">
        <ele>1065.28</ele>
        <time>2026-05-03T14:47:12Z</time>
      </trkpt>
      <trkpt lat="42.21622" lon="8.81228">
        <ele>1066.72</ele>
        <time>2026-05-03T14:47:33Z</time>
      </trkpt>
      <trkpt lat="42.21621" lon="8.81232">
        <ele>1067.2</ele>
        <time>2026-05-03T14:47:44Z</time>
      </trkpt>
      <trkpt lat="42.2162" lon="8.81238">
        <ele>1068.16</ele>
        <time>2026-05-03T14:47:54Z</time>
      </trkpt>
      <trkpt lat="42.2162" lon="8.81246">
        <ele>1068.64</ele>
        <time>2026-05-03T14:48:05Z</time>
      </trkpt>
      <trkpt lat="42.21621" lon="8.81253">
        <ele>1069.12</ele>
        <time>2026-05-03T14:48:19Z</time>
      </trkpt>
      <trkpt lat="42.2162" lon="8.81259">
        <ele>1070.08</ele>
        <time>2026-05-03T14:48:37Z</time>
      </trkpt>
      <trkpt lat="42.21619" lon="8.8126">
        <ele>1071.05</ele>
        <time>2026-05-03T14:48:51Z</time>
      </trkpt>
      <trkpt lat="42.21618" lon="8.81262">
        <ele>1072.49</ele>
        <time>2026-05-03T14:49:05Z</time>
      </trkpt>
      <trkpt lat="42.21617" lon="8.81265">
        <ele>1074.41</ele>
        <time>2026-05-03T14:49:15Z</time>
      </trkpt>
      <trkpt lat="42.21617" lon="8.81266">
        <ele>1074.89</ele>
        <time>2026-05-03T14:49:16Z</time>
      </trkpt>
      <trkpt lat="42.21613" lon="8.81269">
        <ele>1075.85</ele>
        <time>2026-05-03T14:49:28Z</time>
      </trkpt>
      <trkpt lat="42.21611" lon="8.81269">
        <ele>1077.78</ele>
        <time>2026-05-03T14:49:41Z</time>
      </trkpt>
      <trkpt lat="42.21607" lon="8.8127">
        <ele>1080.18</ele>
        <time>2026-05-03T14:49:58Z</time>
      </trkpt>
      <trkpt lat="42.21604" lon="8.81272">
        <ele>1081.14</ele>
        <time>2026-05-03T14:50:11Z</time>
      </trkpt>
      <trkpt lat="42.216" lon="8.81268">
        <ele>1083.06</ele>
        <time>2026-05-03T14:50:30Z</time>
      </trkpt>
      <trkpt lat="42.2159" lon="8.81265">
        <ele>1083.54</ele>
        <time>2026-05-03T14:50:42Z</time>
      </trkpt>
      <trkpt lat="42.21585" lon="8.81264">
        <ele>1083.06</ele>
        <time>2026-05-03T14:50:58Z</time>
      </trkpt>
      <trkpt lat="42.21581" lon="8.81265">
        <ele>1081.62</ele>
        <time>2026-05-03T14:51:12Z</time>
      </trkpt>
      <trkpt lat="42.21581" lon="8.81266">
        <ele>1082.1</ele>
        <time>2026-05-03T14:51:30Z</time>
      </trkpt>
      <trkpt lat="42.21576" lon="8.81264">
        <ele>1080.18</ele>
        <time>2026-05-03T14:51:45Z</time>
      </trkpt>
      <trkpt lat="42.21568" lon="8.81263">
        <ele>1079.7</ele>
        <time>2026-05-03T14:51:58Z</time>
      </trkpt>
      <trkpt lat="42.21561" lon="8.81271">
        <ele>1077.29</ele>
        <time>2026-05-03T14:52:11Z</time>
      </trkpt>
      <trkpt lat="42.21561" lon="8.81273">
        <ele>1076.81</ele>
        <time>2026-05-03T14:52:13Z</time>
      </trkpt>
      <trkpt lat="42.21559" lon="8.81285">
        <ele>1072.97</ele>
        <time>2026-05-03T14:52:25Z</time>
      </trkpt>
      <trkpt lat="42.21557" lon="8.81294">
        <ele>1071.53</ele>
        <time>2026-05-03T14:52:36Z</time>
      </trkpt>
      <trkpt lat="42.21555" lon="8.81304">
        <ele>1069.12</ele>
        <time>2026-05-03T14:52:48Z</time>
      </trkpt>
      <trkpt lat="42.21552" lon="8.81311">
        <ele>1068.16</ele>
        <time>2026-05-03T14:52:57Z</time>
      </trkpt>
      <trkpt lat="42.21545" lon="8.8132">
        <ele>1067.2</ele>
        <time>2026-05-03T14:53:09Z</time>
      </trkpt>
      <trkpt lat="42.21541" lon="8.81328">
        <ele>1064.8</ele>
        <time>2026-05-03T14:53:24Z</time>
      </trkpt>
      <trkpt lat="42.21537" lon="8.81335">
        <ele>1064.8</ele>
        <time>2026-05-03T14:53:36Z</time>
      </trkpt>
      <trkpt lat="42.2153" lon="8.81341">
        <ele>1064.32</ele>
        <time>2026-05-03T14:53:47Z</time>
      </trkpt>
      <trkpt lat="42.21523" lon="8.81351">
        <ele>1063.84</ele>
        <time>2026-05-03T14:54:01Z</time>
      </trkpt>
      <trkpt lat="42.21518" lon="8.81356">
        <ele>1065.28</ele>
        <time>2026-05-03T14:54:15Z</time>
      </trkpt>
      <trkpt lat="42.2151" lon="8.81362">
        <ele>1068.16</ele>
        <time>2026-05-03T14:54:28Z</time>
      </trkpt>
      <trkpt lat="42.21504" lon="8.81373">
        <ele>1066.72</ele>
        <time>2026-05-03T14:54:41Z</time>
      </trkpt>
      <trkpt lat="42.215" lon="8.81385">
        <ele>1064.8</ele>
        <time>2026-05-03T14:54:54Z</time>
      </trkpt>
      <trkpt lat="42.21499" lon="8.81394">
        <ele>1063.36</ele>
        <time>2026-05-03T14:55:11Z</time>
      </trkpt>
      <trkpt lat="42.21497" lon="8.81405">
        <ele>1063.84</ele>
        <time>2026-05-03T14:55:23Z</time>
      </trkpt>
      <trkpt lat="42.21493" lon="8.81414">
        <ele>1064.8</ele>
        <time>2026-05-03T14:55:38Z</time>
      </trkpt>
      <trkpt lat="42.21487" lon="8.81419">
        <ele>1064.8</ele>
        <time>2026-05-03T14:55:52Z</time>
      </trkpt>
      <trkpt lat="42.2148" lon="8.8143">
        <ele>1061.43</ele>
        <time>2026-05-03T14:56:08Z</time>
      </trkpt>
      <trkpt lat="42.21475" lon="8.81443">
        <ele>1059.99</ele>
        <time>2026-05-03T14:56:22Z</time>
      </trkpt>
      <trkpt lat="42.2147" lon="8.8145">
        <ele>1059.03</ele>
        <time>2026-05-03T14:56:33Z</time>
      </trkpt>
      <trkpt lat="42.21459" lon="8.81455">
        <ele>1062.87</ele>
        <time>2026-05-03T14:56:47Z</time>
      </trkpt>
      <trkpt lat="42.21448" lon="8.81457">
        <ele>1067.2</ele>
        <time>2026-05-03T14:57:04Z</time>
      </trkpt>
      <trkpt lat="42.21438" lon="8.81457">
        <ele>1067.2</ele>
        <time>2026-05-03T14:57:22Z</time>
      </trkpt>
      <trkpt lat="42.21434" lon="8.81457">
        <ele>1066.72</ele>
        <time>2026-05-03T14:57:27Z</time>
      </trkpt>
      <trkpt lat="42.21426" lon="8.81458">
        <ele>1066.24</ele>
        <time>2026-05-03T14:57:40Z</time>
      </trkpt>
      <trkpt lat="42.21418" lon="8.81456">
        <ele>1063.84</ele>
        <time>2026-05-03T14:57:54Z</time>
      </trkpt>
      <trkpt lat="42.21415" lon="8.81461">
        <ele>1059.03</ele>
        <time>2026-05-03T14:58:09Z</time>
      </trkpt>
      <trkpt lat="42.21405" lon="8.81463">
        <ele>1058.55</ele>
        <time>2026-05-03T14:58:23Z</time>
      </trkpt>
      <trkpt lat="42.21402" lon="8.81464">
        <ele>1058.07</ele>
        <time>2026-05-03T14:58:28Z</time>
      </trkpt>
      <trkpt lat="42.21394" lon="8.8147">
        <ele>1058.07</ele>
        <time>2026-05-03T14:58:39Z</time>
      </trkpt>
      <trkpt lat="42.2139" lon="8.81469">
        <ele>1057.59</ele>
        <time>2026-05-03T14:58:43Z</time>
      </trkpt>
      <trkpt lat="42.21382" lon="8.81472">
        <ele>1056.15</ele>
        <time>2026-05-03T14:58:54Z</time>
      </trkpt>
      <trkpt lat="42.21381" lon="8.81472">
        <ele>1056.15</ele>
        <time>2026-05-03T14:58:55Z</time>
      </trkpt>
      <trkpt lat="42.21376" lon="8.81473">
        <ele>1057.11</ele>
        <time>2026-05-03T14:59:10Z</time>
      </trkpt>
      <trkpt lat="42.21367" lon="8.81476">
        <ele>1056.15</ele>
        <time>2026-05-03T14:59:24Z</time>
      </trkpt>
      <trkpt lat="42.21362" lon="8.81478">
        <ele>1055.18</ele>
        <time>2026-05-03T14:59:37Z</time>
      </trkpt>
      <trkpt lat="42.21358" lon="8.81482">
        <ele>1055.67</ele>
        <time>2026-05-03T14:59:51Z</time>
      </trkpt>
      <trkpt lat="42.21352" lon="8.81483">
        <ele>1056.15</ele>
        <time>2026-05-03T15:00:05Z</time>
      </trkpt>
      <trkpt lat="42.21342" lon="8.81481">
        <ele>1057.59</ele>
        <time>2026-05-03T15:00:16Z</time>
      </trkpt>
      <trkpt lat="42.21333" lon="8.81482">
        <ele>1058.07</ele>
        <time>2026-05-03T15:00:28Z</time>
      </trkpt>
      <trkpt lat="42.21323" lon="8.81481">
        <ele>1058.55</ele>
        <time>2026-05-03T15:00:42Z</time>
      </trkpt>
      <trkpt lat="42.21321" lon="8.81479">
        <ele>1058.07</ele>
        <time>2026-05-03T15:00:45Z</time>
      </trkpt>
      <trkpt lat="42.21313" lon="8.81473">
        <ele>1058.55</ele>
        <time>2026-05-03T15:00:56Z</time>
      </trkpt>
      <trkpt lat="42.21307" lon="8.81469">
        <ele>1059.03</ele>
        <time>2026-05-03T15:01:06Z</time>
      </trkpt>
      <trkpt lat="42.21302" lon="8.81462">
        <ele>1059.51</ele>
        <time>2026-05-03T15:01:16Z</time>
      </trkpt>
      <trkpt lat="42.21295" lon="8.81455">
        <ele>1059.99</ele>
        <time>2026-05-03T15:01:30Z</time>
      </trkpt>
      <trkpt lat="42.21294" lon="8.81453">
        <ele>1060.95</ele>
        <time>2026-05-03T15:01:43Z</time>
      </trkpt>
      <trkpt lat="42.21296" lon="8.81457">
        <ele>1060.47</ele>
        <time>2026-05-03T15:01:59Z</time>
      </trkpt>
      <trkpt lat="42.21296" lon="8.81455">
        <ele>1060.95</ele>
        <time>2026-05-03T15:02:29Z</time>
      </trkpt>
      <trkpt lat="42.21296" lon="8.81458">
        <ele>1060.47</ele>
        <time>2026-05-03T15:02:58Z</time>
      </trkpt>
      <trkpt lat="42.21297" lon="8.81459">
        <ele>1061.43</ele>
        <time>2026-05-03T15:03:17Z</time>
      </trkpt>
      <trkpt lat="42.21299" lon="8.81466">
        <ele>1059.99</ele>
        <time>2026-05-03T15:03:38Z</time>
      </trkpt>
      <trkpt lat="42.21299" lon="8.81468">
        <ele>1059.03</ele>
        <time>2026-05-03T15:03:51Z</time>
      </trkpt>
      <trkpt lat="42.213" lon="8.81467">
        <ele>1058.55</ele>
        <time>2026-05-03T15:04:18Z</time>
      </trkpt>
      <trkpt lat="42.213" lon="8.81469">
        <ele>1059.03</ele>
        <time>2026-05-03T15:04:23Z</time>
      </trkpt>
      <trkpt lat="42.21305" lon="8.81477">
        <ele>1059.03</ele>
        <time>2026-05-03T15:04:34Z</time>
      </trkpt>
      <trkpt lat="42.21306" lon="8.81483">
        <ele>1059.03</ele>
        <time>2026-05-03T15:04:42Z</time>
      </trkpt>
      <trkpt lat="42.21311" lon="8.81478">
        <ele>1059.03</ele>
        <time>2026-05-03T15:04:56Z</time>
      </trkpt>
      <trkpt lat="42.21313" lon="8.81477">
        <ele>1058.07</ele>
        <time>2026-05-03T15:05:03Z</time>
      </trkpt>
      <trkpt lat="42.21315" lon="8.81477">
        <ele>1058.55</ele>
        <time>2026-05-03T15:05:06Z</time>
      </trkpt>
      <trkpt lat="42.21323" lon="8.81482">
        <ele>1058.07</ele>
        <time>2026-05-03T15:05:18Z</time>
      </trkpt>
      <trkpt lat="42.21327" lon="8.81484">
        <ele>1059.03</ele>
        <time>2026-05-03T15:05:29Z</time>
      </trkpt>
      <trkpt lat="42.21335" lon="8.81487">
        <ele>1058.55</ele>
        <time>2026-05-03T15:05:40Z</time>
      </trkpt>
      <trkpt lat="42.21343" lon="8.81487">
        <ele>1057.59</ele>
        <time>2026-05-03T15:05:50Z</time>
      </trkpt>
      <trkpt lat="42.21352" lon="8.81487">
        <ele>1057.11</ele>
        <time>2026-05-03T15:06:03Z</time>
      </trkpt>
      <trkpt lat="42.2136" lon="8.81487">
        <ele>1056.63</ele>
        <time>2026-05-03T15:06:13Z</time>
      </trkpt>
      <trkpt lat="42.2137" lon="8.81486">
        <ele>1056.15</ele>
        <time>2026-05-03T15:06:25Z</time>
      </trkpt>
      <trkpt lat="42.21377" lon="8.81483">
        <ele>1056.15</ele>
        <time>2026-05-03T15:06:35Z</time>
      </trkpt>
      <trkpt lat="42.21382" lon="8.81482">
        <ele>1054.22</ele>
        <time>2026-05-03T15:06:56Z</time>
      </trkpt>
      <trkpt lat="42.21387" lon="8.81482">
        <ele>1053.74</ele>
        <time>2026-05-03T15:07:10Z</time>
      </trkpt>
      <trkpt lat="42.21395" lon="8.8148">
        <ele>1053.74</ele>
        <time>2026-05-03T15:07:20Z</time>
      </trkpt>
      <trkpt lat="42.21404" lon="8.81479">
        <ele>1053.26</ele>
        <time>2026-05-03T15:07:35Z</time>
      </trkpt>
      <trkpt lat="42.21408" lon="8.81475">
        <ele>1052.3</ele>
        <time>2026-05-03T15:07:49Z</time>
      </trkpt>
      <trkpt lat="42.21405" lon="8.81474">
        <ele>1055.67</ele>
        <time>2026-05-03T15:08:09Z</time>
      </trkpt>
      <trkpt lat="42.21412" lon="8.81482">
        <ele>1055.18</ele>
        <time>2026-05-03T15:08:23Z</time>
      </trkpt>
      <trkpt lat="42.21413" lon="8.81485">
        <ele>1054.7</ele>
        <time>2026-05-03T15:08:26Z</time>
      </trkpt>
      <trkpt lat="42.21411" lon="8.81498">
        <ele>1051.82</ele>
        <time>2026-05-03T15:08:38Z</time>
      </trkpt>
      <trkpt lat="42.21411" lon="8.8151">
        <ele>1048.94</ele>
        <time>2026-05-03T15:08:51Z</time>
      </trkpt>
      <trkpt lat="42.21409" lon="8.81522">
        <ele>1047.49</ele>
        <time>2026-05-03T15:09:03Z</time>
      </trkpt>
      <trkpt lat="42.21409" lon="8.81523">
        <ele>1047.49</ele>
        <time>2026-05-03T15:09:04Z</time>
      </trkpt>
      <trkpt lat="42.21407" lon="8.81539">
        <ele>1047.49</ele>
        <time>2026-05-03T15:09:19Z</time>
      </trkpt>
      <trkpt lat="42.21406" lon="8.81553">
        <ele>1047.01</ele>
        <time>2026-05-03T15:09:32Z</time>
      </trkpt>
      <trkpt lat="42.21407" lon="8.81563">
        <ele>1047.49</ele>
        <time>2026-05-03T15:09:41Z</time>
      </trkpt>
      <trkpt lat="42.21412" lon="8.81578">
        <ele>1047.01</ele>
        <time>2026-05-03T15:09:57Z</time>
      </trkpt>
      <trkpt lat="42.21418" lon="8.81585">
        <ele>1046.05</ele>
        <time>2026-05-03T15:10:10Z</time>
      </trkpt>
      <trkpt lat="42.21425" lon="8.81595">
        <ele>1046.05</ele>
        <time>2026-05-03T15:10:24Z</time>
      </trkpt>
      <trkpt lat="42.21427" lon="8.81599">
        <ele>1046.05</ele>
        <time>2026-05-03T15:10:30Z</time>
      </trkpt>
      <trkpt lat="42.21434" lon="8.81609">
        <ele>1046.05</ele>
        <time>2026-05-03T15:10:42Z</time>
      </trkpt>
      <trkpt lat="42.21443" lon="8.8162">
        <ele>1045.09</ele>
        <time>2026-05-03T15:10:58Z</time>
      </trkpt>
      <trkpt lat="42.21452" lon="8.81625">
        <ele>1045.09</ele>
        <time>2026-05-03T15:11:10Z</time>
      </trkpt>
      <trkpt lat="42.21463" lon="8.81622">
        <ele>1044.13</ele>
        <time>2026-05-03T15:11:22Z</time>
      </trkpt>
      <trkpt lat="42.21466" lon="8.81621">
        <ele>1044.61</ele>
        <time>2026-05-03T15:11:27Z</time>
      </trkpt>
      <trkpt lat="42.21474" lon="8.81614">
        <ele>1044.13</ele>
        <time>2026-05-03T15:11:38Z</time>
      </trkpt>
      <trkpt lat="42.21481" lon="8.81604">
        <ele>1044.13</ele>
        <time>2026-05-03T15:11:51Z</time>
      </trkpt>
      <trkpt lat="42.21489" lon="8.81603">
        <ele>1044.61</ele>
        <time>2026-05-03T15:12:03Z</time>
      </trkpt>
      <trkpt lat="42.2149" lon="8.81606">
        <ele>1044.13</ele>
        <time>2026-05-03T15:12:07Z</time>
      </trkpt>
      <trkpt lat="42.21489" lon="8.81612">
        <ele>1043.65</ele>
        <time>2026-05-03T15:12:14Z</time>
      </trkpt>
      <trkpt lat="42.2148" lon="8.8162">
        <ele>1043.17</ele>
        <time>2026-05-03T15:12:28Z</time>
      </trkpt>
      <trkpt lat="42.21474" lon="8.8163">
        <ele>1042.21</ele>
        <time>2026-05-03T15:12:41Z</time>
      </trkpt>
      <trkpt lat="42.21468" lon="8.81638">
        <ele>1040.28</ele>
        <time>2026-05-03T15:12:53Z</time>
      </trkpt>
      <trkpt lat="42.2146" lon="8.81648">
        <ele>1039.8</ele>
        <time>2026-05-03T15:13:06Z</time>
      </trkpt>
      <trkpt lat="42.21452" lon="8.81658">
        <ele>1039.8</ele>
        <time>2026-05-03T15:13:19Z</time>
      </trkpt>
      <trkpt lat="42.21443" lon="8.81661">
        <ele>1038.84</ele>
        <time>2026-05-03T15:13:31Z</time>
      </trkpt>
      <trkpt lat="42.21441" lon="8.81661">
        <ele>1038.84</ele>
        <time>2026-05-03T15:13:33Z</time>
      </trkpt>
      <trkpt lat="42.2143" lon="8.81655">
        <ele>1038.36</ele>
        <time>2026-05-03T15:13:47Z</time>
      </trkpt>
      <trkpt lat="42.21421" lon="8.81648">
        <ele>1037.4</ele>
        <time>2026-05-03T15:14:00Z</time>
      </trkpt>
      <trkpt lat="42.2141" lon="8.81641">
        <ele>1036.92</ele>
        <time>2026-05-03T15:14:14Z</time>
      </trkpt>
      <trkpt lat="42.21399" lon="8.81635">
        <ele>1036.44</ele>
        <time>2026-05-03T15:14:28Z</time>
      </trkpt>
      <trkpt lat="42.21391" lon="8.81638">
        <ele>1036.92</ele>
        <time>2026-05-03T15:14:41Z</time>
      </trkpt>
      <trkpt lat="42.21385" lon="8.81647">
        <ele>1036.44</ele>
        <time>2026-05-03T15:14:52Z</time>
      </trkpt>
      <trkpt lat="42.21382" lon="8.81664">
        <ele>1034.52</ele>
        <time>2026-05-03T15:15:05Z</time>
      </trkpt>
      <trkpt lat="42.21383" lon="8.81679">
        <ele>1031.15</ele>
        <time>2026-05-03T15:15:18Z</time>
      </trkpt>
      <trkpt lat="42.21382" lon="8.81681">
        <ele>1030.67</ele>
        <time>2026-05-03T15:15:20Z</time>
      </trkpt>
      <trkpt lat="42.21382" lon="8.81684">
        <ele>1030.19</ele>
        <time>2026-05-03T15:15:23Z</time>
      </trkpt>
      <trkpt lat="42.21381" lon="8.81696">
        <ele>1029.71</ele>
        <time>2026-05-03T15:15:35Z</time>
      </trkpt>
      <trkpt lat="42.21378" lon="8.81706">
        <ele>1030.19</ele>
        <time>2026-05-03T15:15:47Z</time>
      </trkpt>
      <trkpt lat="42.21373" lon="8.8172">
        <ele>1029.23</ele>
        <time>2026-05-03T15:16:01Z</time>
      </trkpt>
      <trkpt lat="42.21365" lon="8.81734">
        <ele>1028.27</ele>
        <time>2026-05-03T15:16:15Z</time>
      </trkpt>
      <trkpt lat="42.21364" lon="8.81735">
        <ele>1028.27</ele>
        <time>2026-05-03T15:16:17Z</time>
      </trkpt>
      <trkpt lat="42.21357" lon="8.81737">
        <ele>1028.27</ele>
        <time>2026-05-03T15:16:25Z</time>
      </trkpt>
      <trkpt lat="42.21345" lon="8.81734">
        <ele>1027.79</ele>
        <time>2026-05-03T15:16:38Z</time>
      </trkpt>
      <trkpt lat="42.21336" lon="8.81729">
        <ele>1027.31</ele>
        <time>2026-05-03T15:16:50Z</time>
      </trkpt>
      <trkpt lat="42.21336" lon="8.81727">
        <ele>1026.83</ele>
        <time>2026-05-03T15:17:01Z</time>
      </trkpt>
      <trkpt lat="42.21332" lon="8.81726">
        <ele>1026.83</ele>
        <time>2026-05-03T15:17:04Z</time>
      </trkpt>
      <trkpt lat="42.21321" lon="8.8172">
        <ele>1026.83</ele>
        <time>2026-05-03T15:17:18Z</time>
      </trkpt>
      <trkpt lat="42.21318" lon="8.81723">
        <ele>1026.83</ele>
        <time>2026-05-03T15:17:22Z</time>
      </trkpt>
      <trkpt lat="42.21319" lon="8.81734">
        <ele>1025.86</ele>
        <time>2026-05-03T15:17:33Z</time>
      </trkpt>
      <trkpt lat="42.21324" lon="8.8174">
        <ele>1025.38</ele>
        <time>2026-05-03T15:17:40Z</time>
      </trkpt>
      <trkpt lat="42.21332" lon="8.81744">
        <ele>1023.94</ele>
        <time>2026-05-03T15:17:53Z</time>
      </trkpt>
      <trkpt lat="42.2134" lon="8.81748">
        <ele>1023.94</ele>
        <time>2026-05-03T15:18:06Z</time>
      </trkpt>
      <trkpt lat="42.21347" lon="8.81755">
        <ele>1022.98</ele>
        <time>2026-05-03T15:18:16Z</time>
      </trkpt>
      <trkpt lat="42.21355" lon="8.81767">
        <ele>1020.1</ele>
        <time>2026-05-03T15:18:30Z</time>
      </trkpt>
      <trkpt lat="42.21361" lon="8.81781">
        <ele>1019.62</ele>
        <time>2026-05-03T15:18:42Z</time>
      </trkpt>
      <trkpt lat="42.21366" lon="8.81798">
        <ele>1021.54</ele>
        <time>2026-05-03T15:18:55Z</time>
      </trkpt>
      <trkpt lat="42.21371" lon="8.81809">
        <ele>1021.06</ele>
        <time>2026-05-03T15:19:06Z</time>
      </trkpt>
      <trkpt lat="42.21381" lon="8.81813">
        <ele>1021.06</ele>
        <time>2026-05-03T15:19:19Z</time>
      </trkpt>
      <trkpt lat="42.21385" lon="8.81813">
        <ele>1020.58</ele>
        <time>2026-05-03T15:19:26Z</time>
      </trkpt>
      <trkpt lat="42.21388" lon="8.81807">
        <ele>1020.1</ele>
        <time>2026-05-03T15:19:32Z</time>
      </trkpt>
      <trkpt lat="42.21388" lon="8.81793">
        <ele>1018.65</ele>
        <time>2026-05-03T15:19:46Z</time>
      </trkpt>
      <trkpt lat="42.21388" lon="8.81781">
        <ele>1016.73</ele>
        <time>2026-05-03T15:19:57Z</time>
      </trkpt>
      <trkpt lat="42.21388" lon="8.8177">
        <ele>1015.29</ele>
        <time>2026-05-03T15:20:08Z</time>
      </trkpt>
      <trkpt lat="42.21389" lon="8.8177">
        <ele>1015.29</ele>
        <time>2026-05-03T15:20:09Z</time>
      </trkpt>
      <trkpt lat="42.21395" lon="8.81757">
        <ele>1016.25</ele>
        <time>2026-05-03T15:20:22Z</time>
      </trkpt>
      <trkpt lat="42.21404" lon="8.81749">
        <ele>1014.33</ele>
        <time>2026-05-03T15:20:34Z</time>
      </trkpt>
      <trkpt lat="42.21404" lon="8.81748">
        <ele>1013.37</ele>
        <time>2026-05-03T15:20:45Z</time>
      </trkpt>
      <trkpt lat="42.21412" lon="8.81745">
        <ele>1020.1</ele>
        <time>2026-05-03T15:21:14Z</time>
      </trkpt>
      <trkpt lat="42.21408" lon="8.81739">
        <ele>1018.65</ele>
        <time>2026-05-03T15:21:45Z</time>
      </trkpt>
      <trkpt lat="42.21413" lon="8.81743">
        <ele>1017.69</ele>
        <time>2026-05-03T15:22:14Z</time>
      </trkpt>
      <trkpt lat="42.21416" lon="8.81749">
        <ele>1016.73</ele>
        <time>2026-05-03T15:22:29Z</time>
      </trkpt>
      <trkpt lat="42.21417" lon="8.81752">
        <ele>1015.29</ele>
        <time>2026-05-03T15:22:46Z</time>
      </trkpt>
      <trkpt lat="42.21419" lon="8.81756">
        <ele>1013.37</ele>
        <time>2026-05-03T15:23:08Z</time>
      </trkpt>
      <trkpt lat="42.21424" lon="8.81764">
        <ele>1013.37</ele>
        <time>2026-05-03T15:23:20Z</time>
      </trkpt>
      <trkpt lat="42.21432" lon="8.81773">
        <ele>1014.81</ele>
        <time>2026-05-03T15:23:32Z</time>
      </trkpt>
      <trkpt lat="42.21438" lon="8.81777">
        <ele>1013.37</ele>
        <time>2026-05-03T15:23:44Z</time>
      </trkpt>
      <trkpt lat="42.21447" lon="8.81782">
        <ele>1013.37</ele>
        <time>2026-05-03T15:23:55Z</time>
      </trkpt>
      <trkpt lat="42.21456" lon="8.8178">
        <ele>1012.89</ele>
        <time>2026-05-03T15:24:05Z</time>
      </trkpt>
      <trkpt lat="42.21466" lon="8.81772">
        <ele>1012.89</ele>
        <time>2026-05-03T15:24:18Z</time>
      </trkpt>
      <trkpt lat="42.21469" lon="8.8177">
        <ele>1013.85</ele>
        <time>2026-05-03T15:24:32Z</time>
      </trkpt>
      <trkpt lat="42.21476" lon="8.81758">
        <ele>1013.85</ele>
        <time>2026-05-03T15:24:46Z</time>
      </trkpt>
      <trkpt lat="42.21485" lon="8.81747">
        <ele>1011.44</ele>
        <time>2026-05-03T15:24:59Z</time>
      </trkpt>
      <trkpt lat="42.21495" lon="8.81734">
        <ele>1010.96</ele>
        <time>2026-05-03T15:25:13Z</time>
      </trkpt>
      <trkpt lat="42.21496" lon="8.81734">
        <ele>1011.44</ele>
        <time>2026-05-03T15:25:14Z</time>
      </trkpt>
      <trkpt lat="42.21502" lon="8.81735">
        <ele>1010.96</ele>
        <time>2026-05-03T15:25:22Z</time>
      </trkpt>
      <trkpt lat="42.21506" lon="8.81743">
        <ele>1008.08</ele>
        <time>2026-05-03T15:25:34Z</time>
      </trkpt>
      <trkpt lat="42.21506" lon="8.81744">
        <ele>1007.6</ele>
        <time>2026-05-03T15:25:35Z</time>
      </trkpt>
      <trkpt lat="42.2151" lon="8.81757">
        <ele>1006.16</ele>
        <time>2026-05-03T15:25:48Z</time>
      </trkpt>
      <trkpt lat="42.21513" lon="8.81767">
        <ele>1005.2</ele>
        <time>2026-05-03T15:26:00Z</time>
      </trkpt>
      <trkpt lat="42.21515" lon="8.81771">
        <ele>1005.2</ele>
        <time>2026-05-03T15:26:05Z</time>
      </trkpt>
      <trkpt lat="42.21519" lon="8.81773">
        <ele>1005.68</ele>
        <time>2026-05-03T15:26:12Z</time>
      </trkpt>
      <trkpt lat="42.21529" lon="8.81778">
        <ele>1004.72</ele>
        <time>2026-05-03T15:26:26Z</time>
      </trkpt>
      <trkpt lat="42.21539" lon="8.81783">
        <ele>1003.27</ele>
        <time>2026-05-03T15:26:38Z</time>
      </trkpt>
      <trkpt lat="42.21547" lon="8.81787">
        <ele>1002.79</ele>
        <time>2026-05-03T15:26:50Z</time>
      </trkpt>
      <trkpt lat="42.21558" lon="8.81796">
        <ele>999.91</ele>
        <time>2026-05-03T15:27:06Z</time>
      </trkpt>
      <trkpt lat="42.21565" lon="8.81803">
        <ele>999.91</ele>
        <time>2026-05-03T15:27:16Z</time>
      </trkpt>
      <trkpt lat="42.21571" lon="8.81808">
        <ele>1000.87</ele>
        <time>2026-05-03T15:27:23Z</time>
      </trkpt>
      <trkpt lat="42.21574" lon="8.81821">
        <ele>1000.87</ele>
        <time>2026-05-03T15:27:35Z</time>
      </trkpt>
      <trkpt lat="42.2157" lon="8.81828">
        <ele>999.43</ele>
        <time>2026-05-03T15:27:47Z</time>
      </trkpt>
      <trkpt lat="42.21567" lon="8.81832">
        <ele>998.47</ele>
        <time>2026-05-03T15:27:53Z</time>
      </trkpt>
      <trkpt lat="42.2156" lon="8.81834">
        <ele>998.47</ele>
        <time>2026-05-03T15:28:05Z</time>
      </trkpt>
      <trkpt lat="42.21549" lon="8.81835">
        <ele>998.47</ele>
        <time>2026-05-03T15:28:20Z</time>
      </trkpt>
      <trkpt lat="42.21539" lon="8.81836">
        <ele>999.43</ele>
        <time>2026-05-03T15:28:33Z</time>
      </trkpt>
      <trkpt lat="42.21531" lon="8.81844">
        <ele>998.47</ele>
        <time>2026-05-03T15:28:45Z</time>
      </trkpt>
      <trkpt lat="42.21521" lon="8.81849">
        <ele>996.54</ele>
        <time>2026-05-03T15:28:57Z</time>
      </trkpt>
      <trkpt lat="42.21513" lon="8.81863">
        <ele>996.54</ele>
        <time>2026-05-03T15:29:11Z</time>
      </trkpt>
      <trkpt lat="42.21505" lon="8.81877">
        <ele>994.14</ele>
        <time>2026-05-03T15:29:25Z</time>
      </trkpt>
      <trkpt lat="42.21499" lon="8.81887">
        <ele>994.14</ele>
        <time>2026-05-03T15:29:37Z</time>
      </trkpt>
      <trkpt lat="42.21492" lon="8.81901">
        <ele>992.7</ele>
        <time>2026-05-03T15:29:51Z</time>
      </trkpt>
      <trkpt lat="42.21483" lon="8.81914">
        <ele>992.22</ele>
        <time>2026-05-03T15:30:05Z</time>
      </trkpt>
      <trkpt lat="42.21474" lon="8.81925">
        <ele>991.26</ele>
        <time>2026-05-03T15:30:18Z</time>
      </trkpt>
      <trkpt lat="42.21469" lon="8.81937">
        <ele>990.78</ele>
        <time>2026-05-03T15:30:31Z</time>
      </trkpt>
      <trkpt lat="42.21465" lon="8.81948">
        <ele>989.81</ele>
        <time>2026-05-03T15:30:43Z</time>
      </trkpt>
      <trkpt lat="42.21459" lon="8.81961">
        <ele>989.81</ele>
        <time>2026-05-03T15:30:57Z</time>
      </trkpt>
      <trkpt lat="42.21456" lon="8.81968">
        <ele>989.33</ele>
        <time>2026-05-03T15:31:05Z</time>
      </trkpt>
      <trkpt lat="42.21451" lon="8.81977">
        <ele>988.85</ele>
        <time>2026-05-03T15:31:15Z</time>
      </trkpt>
      <trkpt lat="42.21451" lon="8.8199">
        <ele>989.81</ele>
        <time>2026-05-03T15:31:28Z</time>
      </trkpt>
      <trkpt lat="42.21449" lon="8.81993">
        <ele>990.3</ele>
        <time>2026-05-03T15:31:48Z</time>
      </trkpt>
      <trkpt lat="42.21457" lon="8.81998">
        <ele>987.89</ele>
        <time>2026-05-03T15:32:01Z</time>
      </trkpt>
      <trkpt lat="42.21466" lon="8.82005">
        <ele>985.01</ele>
        <time>2026-05-03T15:32:15Z</time>
      </trkpt>
      <trkpt lat="42.2147" lon="8.82011">
        <ele>984.05</ele>
        <time>2026-05-03T15:32:25Z</time>
      </trkpt>
      <trkpt lat="42.21478" lon="8.82024">
        <ele>982.12</ele>
        <time>2026-05-03T15:32:39Z</time>
      </trkpt>
      <trkpt lat="42.21483" lon="8.82032">
        <ele>981.16</ele>
        <time>2026-05-03T15:32:50Z</time>
      </trkpt>
      <trkpt lat="42.21488" lon="8.82038">
        <ele>979.24</ele>
        <time>2026-05-03T15:33:01Z</time>
      </trkpt>
      <trkpt lat="42.21491" lon="8.82039">
        <ele>979.72</ele>
        <time>2026-05-03T15:33:05Z</time>
      </trkpt>
      <trkpt lat="42.21494" lon="8.82042">
        <ele>979.72</ele>
        <time>2026-05-03T15:33:08Z</time>
      </trkpt>
      <trkpt lat="42.21501" lon="8.82054">
        <ele>979.72</ele>
        <time>2026-05-03T15:33:20Z</time>
      </trkpt>
      <trkpt lat="42.21502" lon="8.82063">
        <ele>978.76</ele>
        <time>2026-05-03T15:33:34Z</time>
      </trkpt>
      <trkpt lat="42.21503" lon="8.82068">
        <ele>978.28</ele>
        <time>2026-05-03T15:33:39Z</time>
      </trkpt>
      <trkpt lat="42.21505" lon="8.82083">
        <ele>976.36</ele>
        <time>2026-05-03T15:33:54Z</time>
      </trkpt>
      <trkpt lat="42.21507" lon="8.82095">
        <ele>978.76</ele>
        <time>2026-05-03T15:34:04Z</time>
      </trkpt>
      <trkpt lat="42.21507" lon="8.82102">
        <ele>979.72</ele>
        <time>2026-05-03T15:34:08Z</time>
      </trkpt>
      <trkpt lat="42.21514" lon="8.82118">
        <ele>980.2</ele>
        <time>2026-05-03T15:34:23Z</time>
      </trkpt>
      <trkpt lat="42.21519" lon="8.82133">
        <ele>980.68</ele>
        <time>2026-05-03T15:34:35Z</time>
      </trkpt>
      <trkpt lat="42.21521" lon="8.82142">
        <ele>979.72</ele>
        <time>2026-05-03T15:34:45Z</time>
      </trkpt>
      <trkpt lat="42.21523" lon="8.82151">
        <ele>978.28</ele>
        <time>2026-05-03T15:34:57Z</time>
      </trkpt>
      <trkpt lat="42.21527" lon="8.8216">
        <ele>978.76</ele>
        <time>2026-05-03T15:35:06Z</time>
      </trkpt>
      <trkpt lat="42.21534" lon="8.82168">
        <ele>979.72</ele>
        <time>2026-05-03T15:35:19Z</time>
      </trkpt>
      <trkpt lat="42.21539" lon="8.8217">
        <ele>978.28</ele>
        <time>2026-05-03T15:35:29Z</time>
      </trkpt>
      <trkpt lat="42.21542" lon="8.8217">
        <ele>976.84</ele>
        <time>2026-05-03T15:35:59Z</time>
      </trkpt>
      <trkpt lat="42.21546" lon="8.82169">
        <ele>979.24</ele>
        <time>2026-05-03T15:36:26Z</time>
      </trkpt>
      <trkpt lat="42.21548" lon="8.82166">
        <ele>980.68</ele>
        <time>2026-05-03T15:36:52Z</time>
      </trkpt>
      <trkpt lat="42.2155" lon="8.8217">
        <ele>979.72</ele>
        <time>2026-05-03T15:37:19Z</time>
      </trkpt>
      <trkpt lat="42.21551" lon="8.82173">
        <ele>984.53</ele>
        <time>2026-05-03T15:37:40Z</time>
      </trkpt>
      <trkpt lat="42.21551" lon="8.82175">
        <ele>989.33</ele>
        <time>2026-05-03T15:38:12Z</time>
      </trkpt>
      <trkpt lat="42.21552" lon="8.8218">
        <ele>988.85</ele>
        <time>2026-05-03T15:38:24Z</time>
      </trkpt>
      <trkpt lat="42.21554" lon="8.8218">
        <ele>988.37</ele>
        <time>2026-05-03T15:38:27Z</time>
      </trkpt>
      <trkpt lat="42.21562" lon="8.82179">
        <ele>985.49</ele>
        <time>2026-05-03T15:38:38Z</time>
      </trkpt>
      <trkpt lat="42.21569" lon="8.82178">
        <ele>982.12</ele>
        <time>2026-05-03T15:38:49Z</time>
      </trkpt>
      <trkpt lat="42.21578" lon="8.82179">
        <ele>977.8</ele>
        <time>2026-05-03T15:39:01Z</time>
      </trkpt>
      <trkpt lat="42.21581" lon="8.82188">
        <ele>976.36</ele>
        <time>2026-05-03T15:39:16Z</time>
      </trkpt>
      <trkpt lat="42.21575" lon="8.82186">
        <ele>975.88</ele>
        <time>2026-05-03T15:39:30Z</time>
      </trkpt>
      <trkpt lat="42.2157" lon="8.82183">
        <ele>976.36</ele>
        <time>2026-05-03T15:39:46Z</time>
      </trkpt>
      <trkpt lat="42.21569" lon="8.82183">
        <ele>975.88</ele>
        <time>2026-05-03T15:39:47Z</time>
      </trkpt>
      <trkpt lat="42.2156" lon="8.82183">
        <ele>977.8</ele>
        <time>2026-05-03T15:39:59Z</time>
      </trkpt>
      <trkpt lat="42.21547" lon="8.82189">
        <ele>978.76</ele>
        <time>2026-05-03T15:40:12Z</time>
      </trkpt>
      <trkpt lat="42.21541" lon="8.82193">
        <ele>978.28</ele>
        <time>2026-05-03T15:40:19Z</time>
      </trkpt>
      <trkpt lat="42.21536" lon="8.82202">
        <ele>976.36</ele>
        <time>2026-05-03T15:40:25Z</time>
      </trkpt>
      <trkpt lat="42.21524" lon="8.822">
        <ele>972.51</ele>
        <time>2026-05-03T15:40:37Z</time>
      </trkpt>
      <trkpt lat="42.21512" lon="8.82195">
        <ele>967.7</ele>
        <time>2026-05-03T15:40:49Z</time>
      </trkpt>
      <trkpt lat="42.21503" lon="8.82189">
        <ele>964.34</ele>
        <time>2026-05-03T15:41:00Z</time>
      </trkpt>
      <trkpt lat="42.21495" lon="8.82182">
        <ele>961.94</ele>
        <time>2026-05-03T15:41:12Z</time>
      </trkpt>
      <trkpt lat="42.21491" lon="8.82179">
        <ele>960.98</ele>
        <time>2026-05-03T15:41:17Z</time>
      </trkpt>
      <trkpt lat="42.2149" lon="8.82168">
        <ele>960.01</ele>
        <time>2026-05-03T15:41:30Z</time>
      </trkpt>
      <trkpt lat="42.21484" lon="8.82157">
        <ele>958.09</ele>
        <time>2026-05-03T15:41:42Z</time>
      </trkpt>
      <trkpt lat="42.21477" lon="8.82145">
        <ele>955.69</ele>
        <time>2026-05-03T15:41:56Z</time>
      </trkpt>
      <trkpt lat="42.21469" lon="8.82135">
        <ele>954.25</ele>
        <time>2026-05-03T15:42:09Z</time>
      </trkpt>
      <trkpt lat="42.21463" lon="8.8213">
        <ele>954.25</ele>
        <time>2026-05-03T15:42:23Z</time>
      </trkpt>
      <trkpt lat="42.21467" lon="8.82128">
        <ele>954.73</ele>
        <time>2026-05-03T15:42:48Z</time>
      </trkpt>
      <trkpt lat="42.21467" lon="8.82131">
        <ele>959.05</ele>
        <time>2026-05-03T15:43:15Z</time>
      </trkpt>
      <trkpt lat="42.21465" lon="8.8213">
        <ele>960.49</ele>
        <time>2026-05-03T15:43:31Z</time>
      </trkpt>
      <trkpt lat="42.21469" lon="8.8213">
        <ele>962.9</ele>
        <time>2026-05-03T15:44:01Z</time>
      </trkpt>
      <trkpt lat="42.21472" lon="8.82129">
        <ele>965.3</ele>
        <time>2026-05-03T15:44:24Z</time>
      </trkpt>
      <trkpt lat="42.21481" lon="8.8213">
        <ele>965.78</ele>
        <time>2026-05-03T15:44:46Z</time>
      </trkpt>
      <trkpt lat="42.2148" lon="8.82129">
        <ele>965.3</ele>
        <time>2026-05-03T15:45:07Z</time>
      </trkpt>
      <trkpt lat="42.21471" lon="8.82133">
        <ele>961.94</ele>
        <time>2026-05-03T15:45:25Z</time>
      </trkpt>
      <trkpt lat="42.21466" lon="8.82134">
        <ele>956.17</ele>
        <time>2026-05-03T15:45:47Z</time>
      </trkpt>
      <trkpt lat="42.21469" lon="8.82132">
        <ele>957.13</ele>
        <time>2026-05-03T15:46:08Z</time>
      </trkpt>
      <trkpt lat="42.21465" lon="8.82132">
        <ele>957.13</ele>
        <time>2026-05-03T15:46:23Z</time>
      </trkpt>
      <trkpt lat="42.21459" lon="8.8213">
        <ele>956.65</ele>
        <time>2026-05-03T15:46:39Z</time>
      </trkpt>
      <trkpt lat="42.2146" lon="8.82131">
        <ele>958.09</ele>
        <time>2026-05-03T15:47:03Z</time>
      </trkpt>
    </trkseg>
  </trk>
</gpx>